<?xml version="1.0" encoding="UTF-8" standalone="no" ?>
<gpx xmlns="http://www.topografix.com/GPX/1/1" xmlns:xsi="http://www.w3.org/2001/XMLSchema-instance" xsi:schemaLocation="http://www.topografix.com/GPX/1/1 http://www.topografix.com/GPX/1/1/gpx.xsd" version="1.1" creator="VisuGPX - https://www.visugpx.com">
  <metadata>
    <name>Puy St Martin version courte</name>
    <desc><![CDATA[Réalisé le 081021]]></desc>
  </metadata>
  <trk>
    <name><![CDATA[Puy St Martin version courte_1]]></name>
    <extensions>
      <line xmlns="http://www.topografix.com/GPX/gpx_style/0/2">
        <color>0000FF</color>
        <width>4</width>
      </line>
    </extensions>
    <trkseg>
      <trkpt lat="44.63988" lon="4.9858">
        <ele>384.21</ele>
        <time>2021-10-07T08:25:06.162Z</time>
      </trkpt>
      <trkpt lat="44.64005" lon="4.98602">
        <ele>385.81</ele>
        <time>2021-10-07T08:25:24.663Z</time>
      </trkpt>
      <trkpt lat="44.6401" lon="4.98628">
        <ele>386.77</ele>
        <time>2021-10-07T08:25:45.142Z</time>
      </trkpt>
      <trkpt lat="44.64014" lon="4.98655">
        <ele>387.78</ele>
        <time>2021-10-07T08:26:04.977Z</time>
      </trkpt>
      <trkpt lat="44.64022" lon="4.98671">
        <ele>388.66</ele>
        <time>2021-10-07T08:26:24.143Z</time>
      </trkpt>
      <trkpt lat="44.64032" lon="4.98697">
        <ele>390.41</ele>
        <time>2021-10-07T08:26:42.443Z</time>
      </trkpt>
      <trkpt lat="44.64027" lon="4.98739">
        <ele>393.49</ele>
        <time>2021-10-07T08:27:11.778Z</time>
      </trkpt>
      <trkpt lat="44.64006" lon="4.98755">
        <ele>394.26</ele>
        <time>2021-10-07T08:27:30.738Z</time>
      </trkpt>
      <trkpt lat="44.63984" lon="4.9875">
        <ele>393.63</ele>
        <time>2021-10-07T08:27:50.897Z</time>
      </trkpt>
      <trkpt lat="44.6396" lon="4.9875">
        <ele>392.65</ele>
        <time>2021-10-07T08:28:09.105Z</time>
      </trkpt>
      <trkpt lat="44.63942" lon="4.98755">
        <ele>391.87</ele>
        <time>2021-10-07T08:28:27.962Z</time>
      </trkpt>
      <trkpt lat="44.63904" lon="4.98758">
        <ele>390.84</ele>
        <time>2021-10-07T08:28:57.022Z</time>
      </trkpt>
      <trkpt lat="44.6388" lon="4.98757">
        <ele>390.83</ele>
        <time>2021-10-07T08:29:16.158Z</time>
      </trkpt>
      <trkpt lat="44.63859" lon="4.9876">
        <ele>390.87</ele>
        <time>2021-10-07T08:29:35.104Z</time>
      </trkpt>
      <trkpt lat="44.63833" lon="4.98761">
        <ele>390.71</ele>
        <time>2021-10-07T08:29:54.982Z</time>
      </trkpt>
      <trkpt lat="44.6381" lon="4.98764">
        <ele>390.28</ele>
        <time>2021-10-07T08:30:14.000Z</time>
      </trkpt>
      <trkpt lat="44.63789" lon="4.98764">
        <ele>389.92</ele>
        <time>2021-10-07T08:30:33.095Z</time>
      </trkpt>
      <trkpt lat="44.63757" lon="4.98762">
        <ele>389.04</ele>
        <time>2021-10-07T08:31:01.467Z</time>
      </trkpt>
      <trkpt lat="44.63734" lon="4.98767">
        <ele>387.61</ele>
        <time>2021-10-07T08:31:20.682Z</time>
      </trkpt>
      <trkpt lat="44.6371" lon="4.98767">
        <ele>386</ele>
        <time>2021-10-07T08:31:39.260Z</time>
      </trkpt>
      <trkpt lat="44.6369" lon="4.98766">
        <ele>384.52</ele>
        <time>2021-10-07T08:31:58.160Z</time>
      </trkpt>
      <trkpt lat="44.63667" lon="4.98764">
        <ele>382.6</ele>
        <time>2021-10-07T08:32:16.960Z</time>
      </trkpt>
      <trkpt lat="44.63634" lon="4.98765">
        <ele>378.83</ele>
        <time>2021-10-07T08:32:44.803Z</time>
      </trkpt>
      <trkpt lat="44.63611" lon="4.98764">
        <ele>376.11</ele>
        <time>2021-10-07T08:33:04.000Z</time>
      </trkpt>
      <trkpt lat="44.63588" lon="4.98766">
        <ele>373.44</ele>
        <time>2021-10-07T08:33:23.000Z</time>
      </trkpt>
      <trkpt lat="44.63562" lon="4.98769">
        <ele>371.18</ele>
        <time>2021-10-07T08:33:42.105Z</time>
      </trkpt>
      <trkpt lat="44.63541" lon="4.98768">
        <ele>369.79</ele>
        <time>2021-10-07T08:34:01.102Z</time>
      </trkpt>
      <trkpt lat="44.63518" lon="4.98766">
        <ele>368.45</ele>
        <time>2021-10-07T08:34:19.621Z</time>
      </trkpt>
      <trkpt lat="44.63481" lon="4.98767">
        <ele>366.06</ele>
        <time>2021-10-07T08:34:47.137Z</time>
      </trkpt>
      <trkpt lat="44.6346" lon="4.9877">
        <ele>364.66</ele>
        <time>2021-10-07T08:35:05.659Z</time>
      </trkpt>
      <trkpt lat="44.63434" lon="4.9877">
        <ele>362.93</ele>
        <time>2021-10-07T08:35:25.545Z</time>
      </trkpt>
      <trkpt lat="44.63408" lon="4.98771">
        <ele>360.69</ele>
        <time>2021-10-07T08:35:44.805Z</time>
      </trkpt>
      <trkpt lat="44.63384" lon="4.98771">
        <ele>358.19</ele>
        <time>2021-10-07T08:36:03.022Z</time>
      </trkpt>
      <trkpt lat="44.63363" lon="4.98768">
        <ele>356.07</ele>
        <time>2021-10-07T08:36:21.484Z</time>
      </trkpt>
      <trkpt lat="44.63326" lon="4.98768">
        <ele>351.7</ele>
        <time>2021-10-07T08:36:50.536Z</time>
      </trkpt>
      <trkpt lat="44.63304" lon="4.98769">
        <ele>349.11</ele>
        <time>2021-10-07T08:37:09.122Z</time>
      </trkpt>
      <trkpt lat="44.63277" lon="4.9877">
        <ele>345.91</ele>
        <time>2021-10-07T08:37:28.041Z</time>
      </trkpt>
      <trkpt lat="44.63255" lon="4.98773">
        <ele>343.37</ele>
        <time>2021-10-07T08:37:46.978Z</time>
      </trkpt>
      <trkpt lat="44.6323" lon="4.98778">
        <ele>340.54</ele>
        <time>2021-10-07T08:38:05.445Z</time>
      </trkpt>
      <trkpt lat="44.63197" lon="4.98779">
        <ele>336.98</ele>
        <time>2021-10-07T08:38:34.200Z</time>
      </trkpt>
      <trkpt lat="44.6317" lon="4.98779">
        <ele>334.56</ele>
        <time>2021-10-07T08:38:53.244Z</time>
      </trkpt>
      <trkpt lat="44.63143" lon="4.98784">
        <ele>332.63</ele>
        <time>2021-10-07T08:39:12.018Z</time>
      </trkpt>
      <trkpt lat="44.63116" lon="4.98786">
        <ele>331.43</ele>
        <time>2021-10-07T08:39:31.863Z</time>
      </trkpt>
      <trkpt lat="44.6309" lon="4.98783">
        <ele>330.55</ele>
        <time>2021-10-07T08:39:51.255Z</time>
      </trkpt>
      <trkpt lat="44.63067" lon="4.98783">
        <ele>328.98</ele>
        <time>2021-10-07T08:40:10.464Z</time>
      </trkpt>
      <trkpt lat="44.63033" lon="4.98784">
        <ele>325.98</ele>
        <time>2021-10-07T08:40:37.781Z</time>
      </trkpt>
      <trkpt lat="44.6301" lon="4.98784">
        <ele>323.82</ele>
        <time>2021-10-07T08:40:56.218Z</time>
      </trkpt>
      <trkpt lat="44.62987" lon="4.98784">
        <ele>321.67</ele>
        <time>2021-10-07T08:41:14.417Z</time>
      </trkpt>
      <trkpt lat="44.62966" lon="4.98786">
        <ele>319.57</ele>
        <time>2021-10-07T08:41:32.959Z</time>
      </trkpt>
      <trkpt lat="44.62943" lon="4.98784">
        <ele>317.46</ele>
        <time>2021-10-07T08:41:52.046Z</time>
      </trkpt>
      <trkpt lat="44.62911" lon="4.98787">
        <ele>314.67</ele>
        <time>2021-10-07T08:42:20.938Z</time>
      </trkpt>
      <trkpt lat="44.62885" lon="4.98793">
        <ele>312.71</ele>
        <time>2021-10-07T08:42:38.999Z</time>
      </trkpt>
      <trkpt lat="44.6286" lon="4.9879">
        <ele>311.1</ele>
        <time>2021-10-07T08:42:57.657Z</time>
      </trkpt>
      <trkpt lat="44.62842" lon="4.98803">
        <ele>309.16</ele>
        <time>2021-10-07T08:43:16.763Z</time>
      </trkpt>
      <trkpt lat="44.62835" lon="4.98833">
        <ele>306.07</ele>
        <time>2021-10-07T08:43:35.782Z</time>
      </trkpt>
      <trkpt lat="44.62826" lon="4.98863">
        <ele>302.2</ele>
        <time>2021-10-07T08:43:55.159Z</time>
      </trkpt>
      <trkpt lat="44.62827" lon="4.98876">
        <ele>300.45</ele>
        <time>2021-10-07T08:44:39.999Z</time>
      </trkpt>
      <trkpt lat="44.62825" lon="4.98909">
        <ele>296.33</ele>
        <time>2021-10-07T08:44:59.765Z</time>
      </trkpt>
      <trkpt lat="44.62842" lon="4.98927">
        <ele>295.59</ele>
        <time>2021-10-07T08:45:18.999Z</time>
      </trkpt>
      <trkpt lat="44.62869" lon="4.9893">
        <ele>296.61</ele>
        <time>2021-10-07T08:45:37.758Z</time>
      </trkpt>
      <trkpt lat="44.6289" lon="4.98935">
        <ele>297.29</ele>
        <time>2021-10-07T08:45:56.557Z</time>
      </trkpt>
      <trkpt lat="44.6292" lon="4.9895">
        <ele>297.73</ele>
        <time>2021-10-07T08:46:25.583Z</time>
      </trkpt>
      <trkpt lat="44.62915" lon="4.98988">
        <ele>296.27</ele>
        <time>2021-10-07T08:46:44.148Z</time>
      </trkpt>
      <trkpt lat="44.62913" lon="4.99022">
        <ele>295.31</ele>
        <time>2021-10-07T08:47:02.740Z</time>
      </trkpt>
      <trkpt lat="44.6291" lon="4.99058">
        <ele>294.74</ele>
        <time>2021-10-07T08:47:21.916Z</time>
      </trkpt>
      <trkpt lat="44.62909" lon="4.99092">
        <ele>294.77</ele>
        <time>2021-10-07T08:47:40.025Z</time>
      </trkpt>
      <trkpt lat="44.62911" lon="4.99126">
        <ele>295.26</ele>
        <time>2021-10-07T08:47:59.242Z</time>
      </trkpt>
      <trkpt lat="44.62916" lon="4.99181">
        <ele>297.89</ele>
        <time>2021-10-07T08:48:27.578Z</time>
      </trkpt>
      <trkpt lat="44.62922" lon="4.99219">
        <ele>301.35</ele>
        <time>2021-10-07T08:48:47.424Z</time>
      </trkpt>
      <trkpt lat="44.6291" lon="4.9924">
        <ele>303.42</ele>
        <time>2021-10-07T08:49:05.924Z</time>
      </trkpt>
      <trkpt lat="44.62888" lon="4.99247">
        <ele>303.46</ele>
        <time>2021-10-07T08:49:25.339Z</time>
      </trkpt>
      <trkpt lat="44.62865" lon="4.99251">
        <ele>303.18</ele>
        <time>2021-10-07T08:49:43.739Z</time>
      </trkpt>
      <trkpt lat="44.62843" lon="4.99256">
        <ele>303.08</ele>
        <time>2021-10-07T08:50:02.337Z</time>
      </trkpt>
      <trkpt lat="44.62815" lon="4.99232">
        <ele>299.34</ele>
        <time>2021-10-07T08:50:30.183Z</time>
      </trkpt>
      <trkpt lat="44.62795" lon="4.99206">
        <ele>296.33</ele>
        <time>2021-10-07T08:50:49.200Z</time>
      </trkpt>
      <trkpt lat="44.62777" lon="4.99185">
        <ele>294.44</ele>
        <time>2021-10-07T08:51:07.900Z</time>
      </trkpt>
      <trkpt lat="44.6275" lon="4.99189">
        <ele>294.47</ele>
        <time>2021-10-07T08:51:26.618Z</time>
      </trkpt>
      <trkpt lat="44.62744" lon="4.99209">
        <ele>295.94</ele>
        <time>2021-10-07T08:51:45.215Z</time>
      </trkpt>
      <trkpt lat="44.62746" lon="4.99257">
        <ele>300.79</ele>
        <time>2021-10-07T08:52:13.182Z</time>
      </trkpt>
      <trkpt lat="44.62732" lon="4.99281">
        <ele>303.59</ele>
        <time>2021-10-07T08:52:32.061Z</time>
      </trkpt>
      <trkpt lat="44.62712" lon="4.99288">
        <ele>304.36</ele>
        <time>2021-10-07T08:52:50.619Z</time>
      </trkpt>
      <trkpt lat="44.62691" lon="4.9929">
        <ele>304.78</ele>
        <time>2021-10-07T08:53:09.405Z</time>
      </trkpt>
      <trkpt lat="44.62665" lon="4.99298">
        <ele>306.43</ele>
        <time>2021-10-07T08:53:27.624Z</time>
      </trkpt>
      <trkpt lat="44.62641" lon="4.99297">
        <ele>307.07</ele>
        <time>2021-10-07T08:53:46.171Z</time>
      </trkpt>
      <trkpt lat="44.62611" lon="4.99302">
        <ele>309.17</ele>
        <time>2021-10-07T08:54:14.917Z</time>
      </trkpt>
      <trkpt lat="44.62594" lon="4.99302">
        <ele>310.15</ele>
        <time>2021-10-07T08:54:33.725Z</time>
      </trkpt>
      <trkpt lat="44.6257" lon="4.99305">
        <ele>312</ele>
        <time>2021-10-07T08:54:52.104Z</time>
      </trkpt>
      <trkpt lat="44.62546" lon="4.99309">
        <ele>314.53</ele>
        <time>2021-10-07T08:55:10.982Z</time>
      </trkpt>
      <trkpt lat="44.62528" lon="4.99307">
        <ele>315.82</ele>
        <time>2021-10-07T08:55:29.539Z</time>
      </trkpt>
      <trkpt lat="44.62497" lon="4.99315">
        <ele>319.11</ele>
        <time>2021-10-07T08:55:57.585Z</time>
      </trkpt>
      <trkpt lat="44.62474" lon="4.99328">
        <ele>321.38</ele>
        <time>2021-10-07T08:56:16.301Z</time>
      </trkpt>
      <trkpt lat="44.62454" lon="4.99342">
        <ele>322.2</ele>
        <time>2021-10-07T08:56:35.041Z</time>
      </trkpt>
      <trkpt lat="44.62437" lon="4.99361">
        <ele>321.72</ele>
        <time>2021-10-07T08:56:54.136Z</time>
      </trkpt>
      <trkpt lat="44.62424" lon="4.99389">
        <ele>319.32</ele>
        <time>2021-10-07T08:57:12.724Z</time>
      </trkpt>
      <trkpt lat="44.62408" lon="4.99409">
        <ele>316.55</ele>
        <time>2021-10-07T08:57:31.063Z</time>
      </trkpt>
      <trkpt lat="44.62378" lon="4.99422">
        <ele>314.83</ele>
        <time>2021-10-07T08:57:59.063Z</time>
      </trkpt>
      <trkpt lat="44.62354" lon="4.99432">
        <ele>313.72</ele>
        <time>2021-10-07T08:58:18.138Z</time>
      </trkpt>
      <trkpt lat="44.62339" lon="4.99442">
        <ele>312.04</ele>
        <time>2021-10-07T08:58:36.776Z</time>
      </trkpt>
      <trkpt lat="44.62357" lon="4.99455">
        <ele>309.08</ele>
        <time>2021-10-07T08:58:55.262Z</time>
      </trkpt>
      <trkpt lat="44.62382" lon="4.9946">
        <ele>307.95</ele>
        <time>2021-10-07T08:59:14.239Z</time>
      </trkpt>
      <trkpt lat="44.62409" lon="4.99475">
        <ele>306.68</ele>
        <time>2021-10-07T08:59:33.118Z</time>
      </trkpt>
      <trkpt lat="44.62428" lon="4.99509">
        <ele>304.48</ele>
        <time>2021-10-07T09:00:01.756Z</time>
      </trkpt>
      <trkpt lat="44.62434" lon="4.99544">
        <ele>301.34</ele>
        <time>2021-10-07T09:00:21.068Z</time>
      </trkpt>
      <trkpt lat="44.62425" lon="4.99577">
        <ele>297.81</ele>
        <time>2021-10-07T09:00:39.999Z</time>
      </trkpt>
      <trkpt lat="44.62414" lon="4.99614">
        <ele>296.01</ele>
        <time>2021-10-07T09:00:59.779Z</time>
      </trkpt>
      <trkpt lat="44.62403" lon="4.99646">
        <ele>295.44</ele>
        <time>2021-10-07T09:01:19.356Z</time>
      </trkpt>
      <trkpt lat="44.62391" lon="4.99692">
        <ele>294.63</ele>
        <time>2021-10-07T09:01:48.121Z</time>
      </trkpt>
      <trkpt lat="44.62382" lon="4.99725">
        <ele>293.95</ele>
        <time>2021-10-07T09:02:07.999Z</time>
      </trkpt>
      <trkpt lat="44.62371" lon="4.99758">
        <ele>293.8</ele>
        <time>2021-10-07T09:02:26.999Z</time>
      </trkpt>
      <trkpt lat="44.62361" lon="4.99795">
        <ele>294.51</ele>
        <time>2021-10-07T09:02:45.875Z</time>
      </trkpt>
      <trkpt lat="44.62352" lon="4.99827">
        <ele>294.59</ele>
        <time>2021-10-07T09:03:05.368Z</time>
      </trkpt>
      <trkpt lat="44.62344" lon="4.99863">
        <ele>293.84</ele>
        <time>2021-10-07T09:03:25.999Z</time>
      </trkpt>
      <trkpt lat="44.62332" lon="4.99909">
        <ele>292.07</ele>
        <time>2021-10-07T09:03:55.066Z</time>
      </trkpt>
      <trkpt lat="44.62324" lon="4.99944">
        <ele>290.85</ele>
        <time>2021-10-07T09:04:14.382Z</time>
      </trkpt>
      <trkpt lat="44.62318" lon="4.99975">
        <ele>290.02</ele>
        <time>2021-10-07T09:04:32.661Z</time>
      </trkpt>
      <trkpt lat="44.6231" lon="5.00009">
        <ele>289.48</ele>
        <time>2021-10-07T09:04:50.997Z</time>
      </trkpt>
      <trkpt lat="44.62296" lon="5.00022">
        <ele>290.05</ele>
        <time>2021-10-07T09:05:09.866Z</time>
      </trkpt>
      <trkpt lat="44.62279" lon="4.99978">
        <ele>289.15</ele>
        <time>2021-10-07T09:05:38.999Z</time>
      </trkpt>
      <trkpt lat="44.62265" lon="4.99946">
        <ele>288.68</ele>
        <time>2021-10-07T09:05:58.299Z</time>
      </trkpt>
      <trkpt lat="44.62253" lon="4.99917">
        <ele>288.12</ele>
        <time>2021-10-07T09:06:17.316Z</time>
      </trkpt>
      <trkpt lat="44.62242" lon="4.99889">
        <ele>287.58</ele>
        <time>2021-10-07T09:06:36.345Z</time>
      </trkpt>
      <trkpt lat="44.62232" lon="4.99862">
        <ele>287.2</ele>
        <time>2021-10-07T09:06:54.803Z</time>
      </trkpt>
      <trkpt lat="44.62217" lon="4.99831">
        <ele>287.32</ele>
        <time>2021-10-07T09:07:15.000Z</time>
      </trkpt>
      <trkpt lat="44.62198" lon="4.99801">
        <ele>289.31</ele>
        <time>2021-10-07T09:07:42.638Z</time>
      </trkpt>
      <trkpt lat="44.62179" lon="4.99794">
        <ele>290.61</ele>
        <time>2021-10-07T09:08:01.867Z</time>
      </trkpt>
      <trkpt lat="44.6216" lon="4.9979">
        <ele>291.74</ele>
        <time>2021-10-07T09:08:20.885Z</time>
      </trkpt>
      <trkpt lat="44.62146" lon="4.99776">
        <ele>294.28</ele>
        <time>2021-10-07T09:08:40.033Z</time>
      </trkpt>
      <trkpt lat="44.62132" lon="4.99767">
        <ele>296.22</ele>
        <time>2021-10-07T09:08:59.000Z</time>
      </trkpt>
      <trkpt lat="44.62108" lon="4.99753">
        <ele>299.06</ele>
        <time>2021-10-07T09:09:30.000Z</time>
      </trkpt>
      <trkpt lat="44.62092" lon="4.99738">
        <ele>299.98</ele>
        <time>2021-10-07T09:09:49.000Z</time>
      </trkpt>
      <trkpt lat="44.62071" lon="4.99725">
        <ele>299.77</ele>
        <time>2021-10-07T09:10:08.022Z</time>
      </trkpt>
      <trkpt lat="44.62051" lon="4.99712">
        <ele>299.3</ele>
        <time>2021-10-07T09:10:26.941Z</time>
      </trkpt>
      <trkpt lat="44.6203" lon="4.99694">
        <ele>300.02</ele>
        <time>2021-10-07T09:10:45.259Z</time>
      </trkpt>
      <trkpt lat="44.62012" lon="4.99678">
        <ele>301.77</ele>
        <time>2021-10-07T09:11:03.578Z</time>
      </trkpt>
      <trkpt lat="44.61994" lon="4.9965">
        <ele>303.77</ele>
        <time>2021-10-07T09:11:31.442Z</time>
      </trkpt>
      <trkpt lat="44.61982" lon="4.99633">
        <ele>304.59</ele>
        <time>2021-10-07T09:11:49.981Z</time>
      </trkpt>
      <trkpt lat="44.61968" lon="4.99617">
        <ele>305.84</ele>
        <time>2021-10-07T09:12:08.981Z</time>
      </trkpt>
      <trkpt lat="44.61949" lon="4.99598">
        <ele>308.56</ele>
        <time>2021-10-07T09:12:27.737Z</time>
      </trkpt>
      <trkpt lat="44.61933" lon="4.99584">
        <ele>310.91</ele>
        <time>2021-10-07T09:12:47.644Z</time>
      </trkpt>
      <trkpt lat="44.6192" lon="4.99563">
        <ele>312.86</ele>
        <time>2021-10-07T09:13:06.141Z</time>
      </trkpt>
      <trkpt lat="44.61898" lon="4.99536">
        <ele>314.45</ele>
        <time>2021-10-07T09:13:34.523Z</time>
      </trkpt>
      <trkpt lat="44.61882" lon="4.99519">
        <ele>315.91</ele>
        <time>2021-10-07T09:13:53.520Z</time>
      </trkpt>
      <trkpt lat="44.61877" lon="4.99497">
        <ele>317.72</ele>
        <time>2021-10-07T09:14:11.917Z</time>
      </trkpt>
      <trkpt lat="44.6187" lon="4.99467">
        <ele>320.26</ele>
        <time>2021-10-07T09:14:30.705Z</time>
      </trkpt>
      <trkpt lat="44.61859" lon="4.99459">
        <ele>322.27</ele>
        <time>2021-10-07T09:14:49.484Z</time>
      </trkpt>
      <trkpt lat="44.61849" lon="4.99435">
        <ele>325.21</ele>
        <time>2021-10-07T09:15:20.619Z</time>
      </trkpt>
      <trkpt lat="44.61839" lon="4.99426">
        <ele>326.93</ele>
        <time>2021-10-07T09:15:39.869Z</time>
      </trkpt>
      <trkpt lat="44.61826" lon="4.99417">
        <ele>328.39</ele>
        <time>2021-10-07T09:15:59.775Z</time>
      </trkpt>
      <trkpt lat="44.61812" lon="4.99401">
        <ele>329.85</ele>
        <time>2021-10-07T09:16:18.964Z</time>
      </trkpt>
      <trkpt lat="44.61796" lon="4.99389">
        <ele>331.46</ele>
        <time>2021-10-07T09:16:38.320Z</time>
      </trkpt>
      <trkpt lat="44.6177" lon="4.99377">
        <ele>334.79</ele>
        <time>2021-10-07T09:16:56.999Z</time>
      </trkpt>
      <trkpt lat="44.61733" lon="4.99378">
        <ele>334.48</ele>
        <time>2021-10-07T09:17:25.999Z</time>
      </trkpt>
      <trkpt lat="44.6171" lon="4.99372">
        <ele>333.75</ele>
        <time>2021-10-07T09:17:45.665Z</time>
      </trkpt>
      <trkpt lat="44.61688" lon="4.99364">
        <ele>332.39</ele>
        <time>2021-10-07T09:18:03.875Z</time>
      </trkpt>
      <trkpt lat="44.61675" lon="4.99341">
        <ele>333.56</ele>
        <time>2021-10-07T09:18:22.619Z</time>
      </trkpt>
      <trkpt lat="44.6166" lon="4.99318">
        <ele>335.91</ele>
        <time>2021-10-07T09:18:41.117Z</time>
      </trkpt>
      <trkpt lat="44.61635" lon="4.99325">
        <ele>336.08</ele>
        <time>2021-10-07T09:19:09.424Z</time>
      </trkpt>
      <trkpt lat="44.61621" lon="4.99339">
        <ele>337.64</ele>
        <time>2021-10-07T09:19:29.082Z</time>
      </trkpt>
      <trkpt lat="44.61609" lon="4.99348">
        <ele>340.21</ele>
        <time>2021-10-07T09:19:48.220Z</time>
      </trkpt>
      <trkpt lat="44.61595" lon="4.9935">
        <ele>342.78</ele>
        <time>2021-10-07T09:20:07.999Z</time>
      </trkpt>
      <trkpt lat="44.61581" lon="4.99355">
        <ele>345.59</ele>
        <time>2021-10-07T09:20:26.678Z</time>
      </trkpt>
      <trkpt lat="44.61576" lon="4.99361">
        <ele>347</ele>
        <time>2021-10-07T09:21:16.999Z</time>
      </trkpt>
      <trkpt lat="44.61556" lon="4.99386">
        <ele>353.41</ele>
        <time>2021-10-07T09:23:05.860Z</time>
      </trkpt>
      <trkpt lat="44.61544" lon="4.99399">
        <ele>357.2</ele>
        <time>2021-10-07T09:23:24.555Z</time>
      </trkpt>
      <trkpt lat="44.61532" lon="4.994">
        <ele>359.55</ele>
        <time>2021-10-07T09:23:43.464Z</time>
      </trkpt>
      <trkpt lat="44.6152" lon="4.99404">
        <ele>362.28</ele>
        <time>2021-10-07T09:24:01.683Z</time>
      </trkpt>
      <trkpt lat="44.61506" lon="4.99411">
        <ele>365.46</ele>
        <time>2021-10-07T09:24:20.419Z</time>
      </trkpt>
      <trkpt lat="44.6149" lon="4.99422">
        <ele>369.08</ele>
        <time>2021-10-07T09:24:49.056Z</time>
      </trkpt>
      <trkpt lat="44.61477" lon="4.99438">
        <ele>372.88</ele>
        <time>2021-10-07T09:25:07.723Z</time>
      </trkpt>
      <trkpt lat="44.61466" lon="4.99446">
        <ele>375.34</ele>
        <time>2021-10-07T09:25:26.422Z</time>
      </trkpt>
      <trkpt lat="44.61449" lon="4.99455">
        <ele>378.69</ele>
        <time>2021-10-07T09:25:45.481Z</time>
      </trkpt>
      <trkpt lat="44.61441" lon="4.99473">
        <ele>382.17</ele>
        <time>2021-10-07T09:26:04.659Z</time>
      </trkpt>
      <trkpt lat="44.6144" lon="4.99495">
        <ele>385.75</ele>
        <time>2021-10-07T09:26:25.216Z</time>
      </trkpt>
      <trkpt lat="44.61435" lon="4.99522">
        <ele>390.72</ele>
        <time>2021-10-07T09:26:53.643Z</time>
      </trkpt>
      <trkpt lat="44.61431" lon="4.99539">
        <ele>393.9</ele>
        <time>2021-10-07T09:27:13.642Z</time>
      </trkpt>
      <trkpt lat="44.61427" lon="4.99554">
        <ele>396.77</ele>
        <time>2021-10-07T09:27:32.000Z</time>
      </trkpt>
      <trkpt lat="44.61423" lon="4.99567">
        <ele>399.48</ele>
        <time>2021-10-07T09:27:50.656Z</time>
      </trkpt>
      <trkpt lat="44.61423" lon="4.99588">
        <ele>402.87</ele>
        <time>2021-10-07T09:28:11.000Z</time>
      </trkpt>
      <trkpt lat="44.61419" lon="4.99607">
        <ele>406.85</ele>
        <time>2021-10-07T09:28:31.000Z</time>
      </trkpt>
      <trkpt lat="44.61419" lon="4.99629">
        <ele>410.89</ele>
        <time>2021-10-07T09:29:00.272Z</time>
      </trkpt>
      <trkpt lat="44.61423" lon="4.99647">
        <ele>413.47</ele>
        <time>2021-10-07T09:29:19.622Z</time>
      </trkpt>
      <trkpt lat="44.61422" lon="4.99668">
        <ele>417.25</ele>
        <time>2021-10-07T09:29:41.000Z</time>
      </trkpt>
      <trkpt lat="44.6142" lon="4.99687">
        <ele>420.8</ele>
        <time>2021-10-07T09:30:00.000Z</time>
      </trkpt>
      <trkpt lat="44.61415" lon="4.99698">
        <ele>424.04</ele>
        <time>2021-10-07T09:30:19.177Z</time>
      </trkpt>
      <trkpt lat="44.61418" lon="4.99717">
        <ele>426.5</ele>
        <time>2021-10-07T09:30:48.000Z</time>
      </trkpt>
      <trkpt lat="44.61409" lon="4.99726">
        <ele>430.54</ele>
        <time>2021-10-07T09:31:07.584Z</time>
      </trkpt>
      <trkpt lat="44.61399" lon="4.99732">
        <ele>433.96</ele>
        <time>2021-10-07T09:31:26.521Z</time>
      </trkpt>
      <trkpt lat="44.61387" lon="4.99732">
        <ele>436.74</ele>
        <time>2021-10-07T09:31:45.961Z</time>
      </trkpt>
      <trkpt lat="44.61373" lon="4.9974">
        <ele>441.84</ele>
        <time>2021-10-07T09:32:04.457Z</time>
      </trkpt>
      <trkpt lat="44.61364" lon="4.99748">
        <ele>445.91</ele>
        <time>2021-10-07T09:32:24.000Z</time>
      </trkpt>
      <trkpt lat="44.61344" lon="4.99765">
        <ele>454.73</ele>
        <time>2021-10-07T09:32:58.666Z</time>
      </trkpt>
      <trkpt lat="44.61333" lon="4.99771">
        <ele>458.64</ele>
        <time>2021-10-07T09:33:18.000Z</time>
      </trkpt>
      <trkpt lat="44.61325" lon="4.99774">
        <ele>460.63</ele>
        <time>2021-10-07T09:33:40.799Z</time>
      </trkpt>
      <trkpt lat="44.61315" lon="4.99777">
        <ele>462.64</ele>
        <time>2021-10-07T09:33:59.000Z</time>
      </trkpt>
      <trkpt lat="44.61304" lon="4.9979">
        <ele>467.86</ele>
        <time>2021-10-07T09:34:17.613Z</time>
      </trkpt>
      <trkpt lat="44.61291" lon="4.99808">
        <ele>475.17</ele>
        <time>2021-10-07T09:34:45.881Z</time>
      </trkpt>
      <trkpt lat="44.6128" lon="4.99816">
        <ele>478.75</ele>
        <time>2021-10-07T09:35:04.879Z</time>
      </trkpt>
      <trkpt lat="44.61269" lon="4.9982">
        <ele>481.18</ele>
        <time>2021-10-07T09:35:23.959Z</time>
      </trkpt>
      <trkpt lat="44.61258" lon="4.99823">
        <ele>483.52</ele>
        <time>2021-10-07T09:35:42.855Z</time>
      </trkpt>
      <trkpt lat="44.6125" lon="4.9982">
        <ele>483.72</ele>
        <time>2021-10-07T09:36:01.999Z</time>
      </trkpt>
      <trkpt lat="44.6124" lon="4.99831">
        <ele>490.1</ele>
        <time>2021-10-07T09:36:21.980Z</time>
      </trkpt>
      <trkpt lat="44.61229" lon="4.99844">
        <ele>497.33</ele>
        <time>2021-10-07T09:36:51.999Z</time>
      </trkpt>
      <trkpt lat="44.6122" lon="4.99851">
        <ele>501.49</ele>
        <time>2021-10-07T09:37:11.424Z</time>
      </trkpt>
      <trkpt lat="44.61207" lon="4.99856">
        <ele>505.29</ele>
        <time>2021-10-07T09:37:31.642Z</time>
      </trkpt>
      <trkpt lat="44.61198" lon="4.99861">
        <ele>507.9</ele>
        <time>2021-10-07T09:37:49.999Z</time>
      </trkpt>
      <trkpt lat="44.6119" lon="4.99873">
        <ele>510.91</ele>
        <time>2021-10-07T09:38:08.898Z</time>
      </trkpt>
      <trkpt lat="44.61181" lon="4.99907">
        <ele>513.3</ele>
        <time>2021-10-07T09:38:36.763Z</time>
      </trkpt>
      <trkpt lat="44.61168" lon="4.9992">
        <ele>512.71</ele>
        <time>2021-10-07T09:38:55.999Z</time>
      </trkpt>
      <trkpt lat="44.61161" lon="4.99913">
        <ele>513.59</ele>
        <time>2021-10-07T09:40:44.136Z</time>
      </trkpt>
      <trkpt lat="44.61153" lon="4.999">
        <ele>515.19</ele>
        <time>2021-10-07T09:41:09.182Z</time>
      </trkpt>
      <trkpt lat="44.61141" lon="4.99862">
        <ele>518.21</ele>
        <time>2021-10-07T09:41:29.241Z</time>
      </trkpt>
      <trkpt lat="44.61142" lon="4.9983">
        <ele>514.87</ele>
        <time>2021-10-07T09:41:47.978Z</time>
      </trkpt>
      <trkpt lat="44.61129" lon="4.998">
        <ele>511.33</ele>
        <time>2021-10-07T09:42:17.999Z</time>
      </trkpt>
      <trkpt lat="44.61113" lon="4.99824">
        <ele>521.46</ele>
        <time>2021-10-07T09:43:28.524Z</time>
      </trkpt>
      <trkpt lat="44.61102" lon="4.99835">
        <ele>525.85</ele>
        <time>2021-10-07T09:43:46.961Z</time>
      </trkpt>
      <trkpt lat="44.61085" lon="4.99833">
        <ele>528.78</ele>
        <time>2021-10-07T09:44:27.999Z</time>
      </trkpt>
      <trkpt lat="44.6107" lon="4.99821">
        <ele>528.86</ele>
        <time>2021-10-07T09:44:47.000Z</time>
      </trkpt>
      <trkpt lat="44.61062" lon="4.99829">
        <ele>528.6</ele>
      </trkpt>
      <trkpt lat="44.6103" lon="4.99827">
        <ele>532.84</ele>
        <time>2021-10-07T09:45:35.881Z</time>
      </trkpt>
      <trkpt lat="44.6102" lon="4.99831">
        <ele>533.74</ele>
        <time>2021-10-07T09:45:54.000Z</time>
      </trkpt>
      <trkpt lat="44.60994" lon="4.99852">
        <ele>536.64</ele>
        <time>2021-10-07T09:46:31.904Z</time>
      </trkpt>
      <trkpt lat="44.60986" lon="4.99864">
        <ele>538.85</ele>
        <time>2021-10-07T09:46:54.804Z</time>
      </trkpt>
      <trkpt lat="44.60966" lon="4.99878">
        <ele>536.14</ele>
        <time>2021-10-07T09:47:22.601Z</time>
      </trkpt>
      <trkpt lat="44.60954" lon="4.99883">
        <ele>531.92</ele>
        <time>2021-10-07T09:47:42.000Z</time>
      </trkpt>
      <trkpt lat="44.60956" lon="4.99893">
        <ele>536.66</ele>
        <time>2021-10-07T09:48:21.000Z</time>
      </trkpt>
      <trkpt lat="44.6096" lon="4.99899">
        <ele>540.75</ele>
        <time>2021-10-07T09:48:41.000Z</time>
      </trkpt>
      <trkpt lat="44.60961" lon="4.99938">
        <ele>554.43</ele>
        <time>2021-10-07T09:49:47.783Z</time>
      </trkpt>
      <trkpt lat="44.60962" lon="4.99957">
        <ele>560.43</ele>
        <time>2021-10-07T09:50:08.872Z</time>
      </trkpt>
      <trkpt lat="44.60977" lon="4.99962">
        <ele>565.45</ele>
        <time>2021-10-07T09:50:42.000Z</time>
      </trkpt>
      <trkpt lat="44.60963" lon="4.99994">
        <ele>570.59</ele>
        <time>2021-10-07T09:52:22.935Z</time>
      </trkpt>
      <trkpt lat="44.60944" lon="5.00031">
        <ele>575.42</ele>
        <time>2021-10-07T09:52:43.000Z</time>
      </trkpt>
      <trkpt lat="44.60926" lon="5.0005">
        <ele>579.09</ele>
        <time>2021-10-07T09:53:12.000Z</time>
      </trkpt>
      <trkpt lat="44.6092" lon="5.00076">
        <ele>579.5</ele>
      </trkpt>
      <trkpt lat="44.60918" lon="5.00103">
        <ele>591.08</ele>
        <time>2021-10-07T09:54:09.923Z</time>
      </trkpt>
      <trkpt lat="44.6092" lon="5.00117">
        <ele>593.57</ele>
        <time>2021-10-07T09:54:28.060Z</time>
      </trkpt>
      <trkpt lat="44.6092" lon="5.00158">
        <ele>596.66</ele>
        <time>2021-10-07T09:55:17.999Z</time>
      </trkpt>
      <trkpt lat="44.60898" lon="5.00143">
        <ele>581</ele>
      </trkpt>
      <trkpt lat="44.60897" lon="5.00144">
        <ele>581</ele>
      </trkpt>
      <trkpt lat="44.60882" lon="5.00164">
        <ele>577</ele>
      </trkpt>
      <trkpt lat="44.60867" lon="5.00173">
        <ele>570.1</ele>
      </trkpt>
      <trkpt lat="44.6085" lon="5.00183">
        <ele>562.1</ele>
      </trkpt>
      <trkpt lat="44.60846" lon="5.00186">
        <ele>560.6</ele>
      </trkpt>
      <trkpt lat="44.60838" lon="5.00197">
        <ele>556.7</ele>
      </trkpt>
      <trkpt lat="44.60839" lon="5.00197">
        <ele>557.2</ele>
      </trkpt>
      <trkpt lat="44.60839" lon="5.002">
        <ele>556.8</ele>
      </trkpt>
      <trkpt lat="44.60838" lon="5.00205">
        <ele>556.5</ele>
      </trkpt>
      <trkpt lat="44.60838" lon="5.00209">
        <ele>556.3</ele>
      </trkpt>
      <trkpt lat="44.60838" lon="5.00211">
        <ele>556</ele>
      </trkpt>
      <trkpt lat="44.60837" lon="5.00213">
        <ele>555.5</ele>
      </trkpt>
      <trkpt lat="44.60833" lon="5.00214">
        <ele>554.2</ele>
      </trkpt>
      <trkpt lat="44.60832" lon="5.00214">
        <ele>553.3</ele>
      </trkpt>
      <trkpt lat="44.60831" lon="5.00215">
        <ele>552.8</ele>
      </trkpt>
      <trkpt lat="44.6083" lon="5.00216">
        <ele>552.1</ele>
      </trkpt>
      <trkpt lat="44.60828" lon="5.0022">
        <ele>550.8</ele>
      </trkpt>
      <trkpt lat="44.60825" lon="5.00221">
        <ele>549.3</ele>
      </trkpt>
      <trkpt lat="44.60819" lon="5.00218">
        <ele>546.2</ele>
      </trkpt>
      <trkpt lat="44.60816" lon="5.00217">
        <ele>544.1</ele>
      </trkpt>
      <trkpt lat="44.60812" lon="5.00217">
        <ele>541.8</ele>
      </trkpt>
      <trkpt lat="44.60806" lon="5.00217">
        <ele>538.3</ele>
      </trkpt>
      <trkpt lat="44.60799" lon="5.00219">
        <ele>534.6</ele>
      </trkpt>
      <trkpt lat="44.60793" lon="5.00222">
        <ele>531.2</ele>
      </trkpt>
      <trkpt lat="44.60789" lon="5.00224">
        <ele>528.8</ele>
      </trkpt>
      <trkpt lat="44.60786" lon="5.00228">
        <ele>526.8</ele>
      </trkpt>
      <trkpt lat="44.60782" lon="5.0023">
        <ele>524.7</ele>
      </trkpt>
      <trkpt lat="44.60779" lon="5.0023">
        <ele>523.3</ele>
      </trkpt>
      <trkpt lat="44.60776" lon="5.00231">
        <ele>521.1</ele>
      </trkpt>
      <trkpt lat="44.60772" lon="5.00233">
        <ele>519.1</ele>
      </trkpt>
      <trkpt lat="44.6077" lon="5.00236">
        <ele>518</ele>
      </trkpt>
      <trkpt lat="44.60768" lon="5.0024">
        <ele>516.7</ele>
      </trkpt>
      <trkpt lat="44.60763" lon="5.00242">
        <ele>514.1</ele>
      </trkpt>
      <trkpt lat="44.60761" lon="5.00242">
        <ele>513.2</ele>
      </trkpt>
      <trkpt lat="44.60759" lon="5.00242">
        <ele>511.6</ele>
      </trkpt>
      <trkpt lat="44.60756" lon="5.00242">
        <ele>510.1</ele>
      </trkpt>
      <trkpt lat="44.60752" lon="5.00245">
        <ele>508.2</ele>
      </trkpt>
      <trkpt lat="44.6075" lon="5.00249">
        <ele>507.1</ele>
      </trkpt>
      <trkpt lat="44.60748" lon="5.00256">
        <ele>504.6</ele>
      </trkpt>
      <trkpt lat="44.60746" lon="5.00259">
        <ele>502.6</ele>
      </trkpt>
      <trkpt lat="44.60745" lon="5.00262">
        <ele>500.8</ele>
      </trkpt>
      <trkpt lat="44.60743" lon="5.00265">
        <ele>499.2</ele>
      </trkpt>
      <trkpt lat="44.60741" lon="5.00267">
        <ele>497.4</ele>
      </trkpt>
      <trkpt lat="44.60737" lon="5.00267">
        <ele>494.2</ele>
      </trkpt>
      <trkpt lat="44.60736" lon="5.00268">
        <ele>493.6</ele>
      </trkpt>
      <trkpt lat="44.60735" lon="5.0027">
        <ele>492.6</ele>
      </trkpt>
      <trkpt lat="44.60735" lon="5.00273">
        <ele>491.7</ele>
      </trkpt>
      <trkpt lat="44.60734" lon="5.00278">
        <ele>490.2</ele>
      </trkpt>
      <trkpt lat="44.60733" lon="5.0028">
        <ele>488.8</ele>
      </trkpt>
      <trkpt lat="44.60731" lon="5.00282">
        <ele>487.9</ele>
      </trkpt>
      <trkpt lat="44.6073" lon="5.00283">
        <ele>486.7</ele>
      </trkpt>
      <trkpt lat="44.6073" lon="5.00286">
        <ele>486.2</ele>
      </trkpt>
      <trkpt lat="44.60731" lon="5.00289">
        <ele>486.2</ele>
      </trkpt>
      <trkpt lat="44.60732" lon="5.00296">
        <ele>485.7</ele>
      </trkpt>
      <trkpt lat="44.60732" lon="5.00301">
        <ele>485.3</ele>
      </trkpt>
      <trkpt lat="44.60732" lon="5.00307">
        <ele>484.2</ele>
      </trkpt>
      <trkpt lat="44.60732" lon="5.00315">
        <ele>482.7</ele>
      </trkpt>
      <trkpt lat="44.60732" lon="5.00321">
        <ele>481.8</ele>
      </trkpt>
      <trkpt lat="44.60733" lon="5.00325">
        <ele>481.7</ele>
      </trkpt>
      <trkpt lat="44.60734" lon="5.00328">
        <ele>481.9</ele>
      </trkpt>
      <trkpt lat="44.60734" lon="5.0033">
        <ele>481.7</ele>
      </trkpt>
      <trkpt lat="44.60734" lon="5.00335">
        <ele>480.3</ele>
      </trkpt>
      <trkpt lat="44.60733" lon="5.00339">
        <ele>479.5</ele>
      </trkpt>
      <trkpt lat="44.60733" lon="5.00343">
        <ele>479</ele>
      </trkpt>
      <trkpt lat="44.60733" lon="5.00346">
        <ele>478.6</ele>
      </trkpt>
      <trkpt lat="44.60733" lon="5.00355">
        <ele>477.3</ele>
      </trkpt>
      <trkpt lat="44.60733" lon="5.00361">
        <ele>476.2</ele>
      </trkpt>
      <trkpt lat="44.60732" lon="5.00371">
        <ele>474</ele>
      </trkpt>
      <trkpt lat="44.60731" lon="5.00374">
        <ele>473</ele>
      </trkpt>
      <trkpt lat="44.60729" lon="5.00375">
        <ele>472</ele>
      </trkpt>
      <trkpt lat="44.60728" lon="5.00375">
        <ele>471.4</ele>
      </trkpt>
      <trkpt lat="44.60725" lon="5.00374">
        <ele>469.6</ele>
      </trkpt>
      <trkpt lat="44.60723" lon="5.00375">
        <ele>468.5</ele>
      </trkpt>
      <trkpt lat="44.60722" lon="5.00377">
        <ele>467.4</ele>
      </trkpt>
      <trkpt lat="44.60721" lon="5.00378">
        <ele>466.8</ele>
      </trkpt>
      <trkpt lat="44.60718" lon="5.0039">
        <ele>463.6</ele>
      </trkpt>
      <trkpt lat="44.60717" lon="5.00393">
        <ele>462.7</ele>
      </trkpt>
      <trkpt lat="44.60716" lon="5.00395">
        <ele>461.9</ele>
      </trkpt>
      <trkpt lat="44.60714" lon="5.00399">
        <ele>460.5</ele>
      </trkpt>
      <trkpt lat="44.60712" lon="5.00405">
        <ele>458.6</ele>
      </trkpt>
      <trkpt lat="44.60709" lon="5.00416">
        <ele>455.6</ele>
      </trkpt>
      <trkpt lat="44.60706" lon="5.00427">
        <ele>453.3</ele>
      </trkpt>
      <trkpt lat="44.60703" lon="5.00434">
        <ele>451.6</ele>
      </trkpt>
      <trkpt lat="44.607" lon="5.00444">
        <ele>449.4</ele>
      </trkpt>
      <trkpt lat="44.60698" lon="5.00448">
        <ele>448.6</ele>
      </trkpt>
      <trkpt lat="44.60697" lon="5.0045">
        <ele>447.9</ele>
      </trkpt>
      <trkpt lat="44.60696" lon="5.00451">
        <ele>447.6</ele>
      </trkpt>
      <trkpt lat="44.60694" lon="5.00459">
        <ele>446.4</ele>
      </trkpt>
      <trkpt lat="44.60693" lon="5.00465">
        <ele>445.5</ele>
      </trkpt>
      <trkpt lat="44.60691" lon="5.00469">
        <ele>444.8</ele>
      </trkpt>
      <trkpt lat="44.6069" lon="5.00473">
        <ele>444.4</ele>
      </trkpt>
      <trkpt lat="44.60689" lon="5.00479">
        <ele>443.7</ele>
      </trkpt>
      <trkpt lat="44.60688" lon="5.00481">
        <ele>443.3</ele>
      </trkpt>
      <trkpt lat="44.60684" lon="5.00485">
        <ele>442</ele>
      </trkpt>
      <trkpt lat="44.60682" lon="5.0049">
        <ele>441.2</ele>
      </trkpt>
      <trkpt lat="44.60678" lon="5.00497">
        <ele>440.2</ele>
      </trkpt>
      <trkpt lat="44.60676" lon="5.00501">
        <ele>439.3</ele>
      </trkpt>
      <trkpt lat="44.60674" lon="5.00507">
        <ele>437.7</ele>
      </trkpt>
      <trkpt lat="44.60674" lon="5.00509">
        <ele>437.3</ele>
      </trkpt>
      <trkpt lat="44.60674" lon="5.00511">
        <ele>436.9</ele>
      </trkpt>
      <trkpt lat="44.60673" lon="5.00516">
        <ele>435.8</ele>
      </trkpt>
      <trkpt lat="44.60669" lon="5.00523">
        <ele>433.7</ele>
      </trkpt>
      <trkpt lat="44.60667" lon="5.00528">
        <ele>432.4</ele>
      </trkpt>
      <trkpt lat="44.60666" lon="5.00533">
        <ele>431</ele>
      </trkpt>
      <trkpt lat="44.60665" lon="5.00535">
        <ele>430.2</ele>
      </trkpt>
      <trkpt lat="44.60664" lon="5.00543">
        <ele>428.4</ele>
      </trkpt>
      <trkpt lat="44.60664" lon="5.00545">
        <ele>427.9</ele>
      </trkpt>
      <trkpt lat="44.60663" lon="5.00547">
        <ele>427.5</ele>
      </trkpt>
      <trkpt lat="44.60662" lon="5.0055">
        <ele>426.3</ele>
      </trkpt>
      <trkpt lat="44.60661" lon="5.00554">
        <ele>425</ele>
      </trkpt>
      <trkpt lat="44.60657" lon="5.00562">
        <ele>422.3</ele>
      </trkpt>
      <trkpt lat="44.60656" lon="5.00565">
        <ele>421.4</ele>
      </trkpt>
      <trkpt lat="44.60655" lon="5.00572">
        <ele>419.9</ele>
      </trkpt>
      <trkpt lat="44.60654" lon="5.00577">
        <ele>419</ele>
      </trkpt>
      <trkpt lat="44.60653" lon="5.0058">
        <ele>418.1</ele>
      </trkpt>
      <trkpt lat="44.60651" lon="5.00582">
        <ele>417</ele>
      </trkpt>
      <trkpt lat="44.60648" lon="5.00587">
        <ele>414.9</ele>
      </trkpt>
      <trkpt lat="44.60646" lon="5.00589">
        <ele>413.6</ele>
      </trkpt>
      <trkpt lat="44.60638" lon="5.00602">
        <ele>407.8</ele>
      </trkpt>
      <trkpt lat="44.60634" lon="5.00605">
        <ele>405.9</ele>
      </trkpt>
      <trkpt lat="44.60626" lon="5.00613">
        <ele>401.5</ele>
      </trkpt>
      <trkpt lat="44.6062" lon="5.00618">
        <ele>398.6</ele>
      </trkpt>
      <trkpt lat="44.60615" lon="5.00623">
        <ele>396.4</ele>
      </trkpt>
      <trkpt lat="44.60614" lon="5.00626">
        <ele>395.6</ele>
      </trkpt>
      <trkpt lat="44.60612" lon="5.00628">
        <ele>394.8</ele>
      </trkpt>
      <trkpt lat="44.60609" lon="5.00632">
        <ele>393.2</ele>
      </trkpt>
      <trkpt lat="44.60607" lon="5.00636">
        <ele>392.1</ele>
      </trkpt>
      <trkpt lat="44.60604" lon="5.00643">
        <ele>390.1</ele>
      </trkpt>
      <trkpt lat="44.60602" lon="5.00646">
        <ele>389.2</ele>
      </trkpt>
      <trkpt lat="44.60597" lon="5.0065">
        <ele>387.4</ele>
      </trkpt>
      <trkpt lat="44.60595" lon="5.00651">
        <ele>386.7</ele>
      </trkpt>
      <trkpt lat="44.60593" lon="5.00651">
        <ele>386.1</ele>
      </trkpt>
      <trkpt lat="44.60591" lon="5.00651">
        <ele>385.5</ele>
      </trkpt>
      <trkpt lat="44.60588" lon="5.00652">
        <ele>384.6</ele>
      </trkpt>
      <trkpt lat="44.60586" lon="5.00654">
        <ele>384</ele>
      </trkpt>
      <trkpt lat="44.60586" lon="5.00656">
        <ele>383.7</ele>
      </trkpt>
      <trkpt lat="44.60582" lon="5.00667">
        <ele>381</ele>
      </trkpt>
      <trkpt lat="44.60577" lon="5.00676">
        <ele>376.9</ele>
      </trkpt>
      <trkpt lat="44.60575" lon="5.00683">
        <ele>375</ele>
      </trkpt>
      <trkpt lat="44.60574" lon="5.00686">
        <ele>374</ele>
      </trkpt>
      <trkpt lat="44.60574" lon="5.00689">
        <ele>373.4</ele>
      </trkpt>
      <trkpt lat="44.60573" lon="5.00693">
        <ele>372.3</ele>
      </trkpt>
      <trkpt lat="44.60572" lon="5.00695">
        <ele>371.7</ele>
      </trkpt>
      <trkpt lat="44.60573" lon="5.00716">
        <ele>369</ele>
      </trkpt>
      <trkpt lat="44.60575" lon="5.00722">
        <ele>369.2</ele>
      </trkpt>
      <trkpt lat="44.60591" lon="5.00734">
        <ele>371.7</ele>
      </trkpt>
      <trkpt lat="44.60606" lon="5.00749">
        <ele>371.1</ele>
      </trkpt>
      <trkpt lat="44.60608" lon="5.00777">
        <ele>364.1</ele>
      </trkpt>
      <trkpt lat="44.60602" lon="5.00788">
        <ele>360.6</ele>
      </trkpt>
      <trkpt lat="44.60592" lon="5.00801">
        <ele>356.7</ele>
      </trkpt>
      <trkpt lat="44.60581" lon="5.00816">
        <ele>352.6</ele>
      </trkpt>
      <trkpt lat="44.60574" lon="5.00828">
        <ele>348.6</ele>
      </trkpt>
      <trkpt lat="44.6057" lon="5.00838">
        <ele>346</ele>
      </trkpt>
      <trkpt lat="44.60564" lon="5.00846">
        <ele>343.3</ele>
      </trkpt>
      <trkpt lat="44.6056" lon="5.00854">
        <ele>341</ele>
      </trkpt>
      <trkpt lat="44.60558" lon="5.00858">
        <ele>339.9</ele>
      </trkpt>
      <trkpt lat="44.60552" lon="5.00865">
        <ele>337.4</ele>
      </trkpt>
      <trkpt lat="44.60544" lon="5.00874">
        <ele>334.6</ele>
      </trkpt>
      <trkpt lat="44.60543" lon="5.00875">
        <ele>334.1</ele>
      </trkpt>
      <trkpt lat="44.6054" lon="5.00881">
        <ele>332.6</ele>
      </trkpt>
      <trkpt lat="44.60538" lon="5.00885">
        <ele>331.5</ele>
      </trkpt>
      <trkpt lat="44.60535" lon="5.00894">
        <ele>329.3</ele>
      </trkpt>
      <trkpt lat="44.60534" lon="5.00897">
        <ele>328.5</ele>
      </trkpt>
      <trkpt lat="44.60531" lon="5.00902">
        <ele>327.2</ele>
      </trkpt>
      <trkpt lat="44.60524" lon="5.00907">
        <ele>325.5</ele>
      </trkpt>
      <trkpt lat="44.60516" lon="5.00913">
        <ele>323.4</ele>
      </trkpt>
      <trkpt lat="44.60511" lon="5.00915">
        <ele>322.4</ele>
      </trkpt>
      <trkpt lat="44.60506" lon="5.00918">
        <ele>321.6</ele>
      </trkpt>
      <trkpt lat="44.60501" lon="5.00923">
        <ele>321</ele>
      </trkpt>
      <trkpt lat="44.60496" lon="5.00927">
        <ele>319.6</ele>
      </trkpt>
      <trkpt lat="44.60489" lon="5.00936">
        <ele>317.4</ele>
      </trkpt>
      <trkpt lat="44.60484" lon="5.00942">
        <ele>315.8</ele>
      </trkpt>
      <trkpt lat="44.60481" lon="5.00947">
        <ele>314.8</ele>
      </trkpt>
      <trkpt lat="44.60477" lon="5.0095">
        <ele>313.6</ele>
      </trkpt>
      <trkpt lat="44.60474" lon="5.00951">
        <ele>312.8</ele>
      </trkpt>
      <trkpt lat="44.60471" lon="5.00951">
        <ele>311.7</ele>
      </trkpt>
      <trkpt lat="44.60468" lon="5.00952">
        <ele>310.9</ele>
      </trkpt>
      <trkpt lat="44.60465" lon="5.00953">
        <ele>310</ele>
      </trkpt>
      <trkpt lat="44.60462" lon="5.00955">
        <ele>309</ele>
      </trkpt>
      <trkpt lat="44.60454" lon="5.00961">
        <ele>306.7</ele>
      </trkpt>
      <trkpt lat="44.60448" lon="5.00964">
        <ele>304.8</ele>
      </trkpt>
      <trkpt lat="44.60444" lon="5.00967">
        <ele>303.7</ele>
      </trkpt>
      <trkpt lat="44.6044" lon="5.00969">
        <ele>302.4</ele>
      </trkpt>
      <trkpt lat="44.60436" lon="5.00972">
        <ele>301.1</ele>
      </trkpt>
      <trkpt lat="44.60432" lon="5.00974">
        <ele>299.9</ele>
      </trkpt>
      <trkpt lat="44.60425" lon="5.00979">
        <ele>297.7</ele>
      </trkpt>
      <trkpt lat="44.60417" lon="5.00985">
        <ele>295.3</ele>
      </trkpt>
      <trkpt lat="44.60414" lon="5.00989">
        <ele>294.2</ele>
      </trkpt>
      <trkpt lat="44.60411" lon="5.00993">
        <ele>292.6</ele>
      </trkpt>
      <trkpt lat="44.60407" lon="5.00995">
        <ele>291.2</ele>
      </trkpt>
      <trkpt lat="44.60405" lon="5.00997">
        <ele>290.3</ele>
      </trkpt>
      <trkpt lat="44.604" lon="5.00999">
        <ele>288.3</ele>
      </trkpt>
      <trkpt lat="44.60396" lon="5.01001">
        <ele>286.7</ele>
      </trkpt>
      <trkpt lat="44.60391" lon="5.01004">
        <ele>284.6</ele>
      </trkpt>
      <trkpt lat="44.60386" lon="5.01006">
        <ele>282.8</ele>
      </trkpt>
      <trkpt lat="44.60381" lon="5.0101">
        <ele>280.8</ele>
      </trkpt>
      <trkpt lat="44.60382" lon="5.00989">
        <ele>281.1</ele>
      </trkpt>
      <trkpt lat="44.6038" lon="5.00986">
        <ele>280.1</ele>
      </trkpt>
      <trkpt lat="44.60363" lon="5.00987">
        <ele>273.5</ele>
      </trkpt>
      <trkpt lat="44.60336" lon="5.01001">
        <ele>261.9</ele>
      </trkpt>
      <trkpt lat="44.60321" lon="5.01">
        <ele>258.9</ele>
      </trkpt>
      <trkpt lat="44.60312" lon="5.00998">
        <ele>257.4</ele>
      </trkpt>
      <trkpt lat="44.60301" lon="5.00996">
        <ele>255.6</ele>
      </trkpt>
      <trkpt lat="44.60298" lon="5.00996">
        <ele>255</ele>
      </trkpt>
      <trkpt lat="44.60292" lon="5.00994">
        <ele>254</ele>
      </trkpt>
      <trkpt lat="44.60291" lon="5.00999">
        <ele>253.8</ele>
      </trkpt>
      <trkpt lat="44.6029" lon="5.00999">
        <ele>253.8</ele>
      </trkpt>
      <trkpt lat="44.60292" lon="5.00994">
        <ele>254</ele>
      </trkpt>
      <trkpt lat="44.60292" lon="5.00991">
        <ele>254.1</ele>
      </trkpt>
      <trkpt lat="44.60293" lon="5.0098">
        <ele>254.4</ele>
      </trkpt>
      <trkpt lat="44.60296" lon="5.00946">
        <ele>255.1</ele>
      </trkpt>
      <trkpt lat="44.60298" lon="5.00916">
        <ele>255.9</ele>
      </trkpt>
      <trkpt lat="44.603" lon="5.00903">
        <ele>255.8</ele>
      </trkpt>
      <trkpt lat="44.603" lon="5.00899">
        <ele>255.7</ele>
      </trkpt>
      <trkpt lat="44.60301" lon="5.0089">
        <ele>255.6</ele>
      </trkpt>
      <trkpt lat="44.60305" lon="5.00851">
        <ele>255.4</ele>
      </trkpt>
      <trkpt lat="44.60306" lon="5.00841">
        <ele>255.3</ele>
      </trkpt>
      <trkpt lat="44.60307" lon="5.00838">
        <ele>255.3</ele>
      </trkpt>
      <trkpt lat="44.60306" lon="5.00835">
        <ele>255.2</ele>
      </trkpt>
      <trkpt lat="44.60305" lon="5.00833">
        <ele>255</ele>
      </trkpt>
      <trkpt lat="44.60309" lon="5.00822">
        <ele>255.6</ele>
      </trkpt>
      <trkpt lat="44.60309" lon="5.00816">
        <ele>255.7</ele>
      </trkpt>
      <trkpt lat="44.60311" lon="5.00807">
        <ele>256</ele>
      </trkpt>
      <trkpt lat="44.60311" lon="5.00802">
        <ele>256.1</ele>
      </trkpt>
      <trkpt lat="44.60313" lon="5.00794">
        <ele>256.5</ele>
      </trkpt>
      <trkpt lat="44.60316" lon="5.00784">
        <ele>257</ele>
      </trkpt>
      <trkpt lat="44.60321" lon="5.00765">
        <ele>257.9</ele>
      </trkpt>
      <trkpt lat="44.60325" lon="5.0075">
        <ele>258.5</ele>
      </trkpt>
      <trkpt lat="44.60327" lon="5.00741">
        <ele>258.7</ele>
      </trkpt>
      <trkpt lat="44.60331" lon="5.00729">
        <ele>259.1</ele>
      </trkpt>
      <trkpt lat="44.60332" lon="5.00725">
        <ele>259.2</ele>
      </trkpt>
      <trkpt lat="44.60333" lon="5.0072">
        <ele>259.2</ele>
      </trkpt>
      <trkpt lat="44.60333" lon="5.00714">
        <ele>259.2</ele>
      </trkpt>
      <trkpt lat="44.60334" lon="5.00698">
        <ele>259</ele>
      </trkpt>
      <trkpt lat="44.60335" lon="5.00681">
        <ele>259.1</ele>
      </trkpt>
      <trkpt lat="44.60336" lon="5.00669">
        <ele>259.2</ele>
      </trkpt>
      <trkpt lat="44.60337" lon="5.00663">
        <ele>259.4</ele>
      </trkpt>
      <trkpt lat="44.60338" lon="5.00652">
        <ele>259.6</ele>
      </trkpt>
      <trkpt lat="44.6034" lon="5.0064">
        <ele>260</ele>
      </trkpt>
      <trkpt lat="44.60343" lon="5.00625">
        <ele>261.2</ele>
      </trkpt>
      <trkpt lat="44.60347" lon="5.0061">
        <ele>262.6</ele>
      </trkpt>
      <trkpt lat="44.60349" lon="5.00602">
        <ele>263.5</ele>
      </trkpt>
      <trkpt lat="44.60351" lon="5.00596">
        <ele>264</ele>
      </trkpt>
      <trkpt lat="44.60353" lon="5.00587">
        <ele>264.7</ele>
      </trkpt>
      <trkpt lat="44.60356" lon="5.00566">
        <ele>266.2</ele>
      </trkpt>
      <trkpt lat="44.60358" lon="5.00555">
        <ele>267</ele>
      </trkpt>
      <trkpt lat="44.6036" lon="5.00548">
        <ele>267.5</ele>
      </trkpt>
      <trkpt lat="44.6036" lon="5.00544">
        <ele>267.7</ele>
      </trkpt>
      <trkpt lat="44.6036" lon="5.00531">
        <ele>267.6</ele>
      </trkpt>
      <trkpt lat="44.60371" lon="5.00464">
        <ele>269.6</ele>
      </trkpt>
      <trkpt lat="44.60378" lon="5.00407">
        <ele>268.2</ele>
      </trkpt>
      <trkpt lat="44.60392" lon="5.00372">
        <ele>270.4</ele>
      </trkpt>
      <trkpt lat="44.60416" lon="5.00342">
        <ele>276.3</ele>
      </trkpt>
      <trkpt lat="44.60434" lon="5.00326">
        <ele>283.9</ele>
      </trkpt>
      <trkpt lat="44.6044" lon="5.00317">
        <ele>287.2</ele>
      </trkpt>
      <trkpt lat="44.60446" lon="5.003">
        <ele>290</ele>
      </trkpt>
      <trkpt lat="44.60449" lon="5.00286">
        <ele>291.8</ele>
      </trkpt>
      <trkpt lat="44.60448" lon="5.00267">
        <ele>291.5</ele>
      </trkpt>
      <trkpt lat="44.60448" lon="5.00254">
        <ele>291.5</ele>
      </trkpt>
      <trkpt lat="44.60448" lon="5.00251">
        <ele>291.5</ele>
      </trkpt>
      <trkpt lat="44.60445" lon="5.00229">
        <ele>291.7</ele>
      </trkpt>
      <trkpt lat="44.6044" lon="5.00205">
        <ele>290.1</ele>
      </trkpt>
      <trkpt lat="44.60427" lon="5.00187">
        <ele>284.4</ele>
      </trkpt>
      <trkpt lat="44.60418" lon="5.00178">
        <ele>280</ele>
      </trkpt>
      <trkpt lat="44.60408" lon="5.00159">
        <ele>276.5</ele>
      </trkpt>
      <trkpt lat="44.60407" lon="5.00143">
        <ele>277.3</ele>
      </trkpt>
      <trkpt lat="44.60417" lon="5.00076">
        <ele>286</ele>
      </trkpt>
      <trkpt lat="44.60426" lon="5.00001">
        <ele>289.7</ele>
      </trkpt>
      <trkpt lat="44.60435" lon="4.99922">
        <ele>291.1</ele>
      </trkpt>
      <trkpt lat="44.60443" lon="4.99831">
        <ele>294.4</ele>
      </trkpt>
      <trkpt lat="44.60442" lon="4.99825">
        <ele>294.1</ele>
      </trkpt>
      <trkpt lat="44.60442" lon="4.99813">
        <ele>293.6</ele>
      </trkpt>
      <trkpt lat="44.60442" lon="4.9979">
        <ele>293.2</ele>
      </trkpt>
      <trkpt lat="44.60442" lon="4.99764">
        <ele>292.4</ele>
      </trkpt>
      <trkpt lat="44.60441" lon="4.99736">
        <ele>291.3</ele>
      </trkpt>
      <trkpt lat="44.6044" lon="4.99711">
        <ele>290.5</ele>
      </trkpt>
      <trkpt lat="44.60439" lon="4.99696">
        <ele>290.2</ele>
      </trkpt>
      <trkpt lat="44.60439" lon="4.99673">
        <ele>289.9</ele>
      </trkpt>
      <trkpt lat="44.60439" lon="4.99651">
        <ele>288.5</ele>
      </trkpt>
      <trkpt lat="44.60439" lon="4.99638">
        <ele>287.6</ele>
      </trkpt>
      <trkpt lat="44.6044" lon="4.99622">
        <ele>286.3</ele>
      </trkpt>
      <trkpt lat="44.6044" lon="4.99615">
        <ele>285.8</ele>
      </trkpt>
      <trkpt lat="44.6044" lon="4.99609">
        <ele>285.3</ele>
      </trkpt>
      <trkpt lat="44.60441" lon="4.99596">
        <ele>284.4</ele>
      </trkpt>
      <trkpt lat="44.60442" lon="4.99578">
        <ele>283.4</ele>
      </trkpt>
      <trkpt lat="44.60444" lon="4.99552">
        <ele>281.8</ele>
      </trkpt>
      <trkpt lat="44.60445" lon="4.99537">
        <ele>280.9</ele>
      </trkpt>
      <trkpt lat="44.60446" lon="4.99528">
        <ele>280.2</ele>
      </trkpt>
      <trkpt lat="44.60446" lon="4.99525">
        <ele>280</ele>
      </trkpt>
      <trkpt lat="44.60446" lon="4.99516">
        <ele>279.2</ele>
      </trkpt>
      <trkpt lat="44.60446" lon="4.99502">
        <ele>277.9</ele>
      </trkpt>
      <trkpt lat="44.60457" lon="4.99503">
        <ele>281.3</ele>
      </trkpt>
      <trkpt lat="44.60437" lon="4.99252">
        <ele>284.9</ele>
      </trkpt>
      <trkpt lat="44.60433" lon="4.99213">
        <ele>287.6</ele>
      </trkpt>
      <trkpt lat="44.60412" lon="4.99166">
        <ele>285.3</ele>
      </trkpt>
      <trkpt lat="44.60413" lon="4.99138">
        <ele>291</ele>
      </trkpt>
      <trkpt lat="44.60404" lon="4.99101">
        <ele>294</ele>
      </trkpt>
      <trkpt lat="44.60372" lon="4.99046">
        <ele>289.3</ele>
      </trkpt>
      <trkpt lat="44.60353" lon="4.99018">
        <ele>287.3</ele>
      </trkpt>
      <trkpt lat="44.60335" lon="4.98941">
        <ele>289.3</ele>
      </trkpt>
      <trkpt lat="44.60339" lon="4.9893">
        <ele>291.4</ele>
      </trkpt>
      <trkpt lat="44.60382" lon="4.98875">
        <ele>304</ele>
      </trkpt>
      <trkpt lat="44.60479" lon="4.98808">
        <ele>311.7</ele>
      </trkpt>
      <trkpt lat="44.60485" lon="4.98807">
        <ele>312.74</ele>
        <time>2021-10-07T11:14:48.885Z</time>
      </trkpt>
      <trkpt lat="44.60464" lon="4.98804">
        <ele>309.95</ele>
        <time>2021-10-07T11:15:07.784Z</time>
      </trkpt>
      <trkpt lat="44.60446" lon="4.98793">
        <ele>307.02</ele>
        <time>2021-10-07T11:15:26.878Z</time>
      </trkpt>
      <trkpt lat="44.60424" lon="4.98774">
        <ele>304.46</ele>
        <time>2021-10-07T11:15:55.999Z</time>
      </trkpt>
      <trkpt lat="44.60416" lon="4.98768">
        <ele>304.14</ele>
        <time>2021-10-07T11:16:18.024Z</time>
      </trkpt>
      <trkpt lat="44.604" lon="4.98749">
        <ele>304.13</ele>
        <time>2021-10-07T11:16:37.342Z</time>
      </trkpt>
      <trkpt lat="44.60384" lon="4.9873">
        <ele>304.55</ele>
        <time>2021-10-07T11:16:56.378Z</time>
      </trkpt>
      <trkpt lat="44.60364" lon="4.98715">
        <ele>304.67</ele>
        <time>2021-10-07T11:17:14.875Z</time>
      </trkpt>
      <trkpt lat="44.60329" lon="4.98674">
        <ele>301.68</ele>
        <time>2021-10-07T11:17:43.766Z</time>
      </trkpt>
      <trkpt lat="44.60302" lon="4.98655">
        <ele>300.2</ele>
        <time>2021-10-07T11:18:03.999Z</time>
      </trkpt>
      <trkpt lat="44.60275" lon="4.98641">
        <ele>299.2</ele>
        <time>2021-10-07T11:18:22.999Z</time>
      </trkpt>
      <trkpt lat="44.60245" lon="4.98632">
        <ele>296.99</ele>
        <time>2021-10-07T11:18:42.019Z</time>
      </trkpt>
      <trkpt lat="44.60216" lon="4.9864">
        <ele>294.04</ele>
        <time>2021-10-07T11:19:01.886Z</time>
      </trkpt>
      <trkpt lat="44.60192" lon="4.98659">
        <ele>291.34</ele>
        <time>2021-10-07T11:19:21.066Z</time>
      </trkpt>
      <trkpt lat="44.6015" lon="4.98662">
        <ele>283.78</ele>
        <time>2021-10-07T11:19:50.081Z</time>
      </trkpt>
      <trkpt lat="44.6013" lon="4.98658">
        <ele>279.95</ele>
        <time>2021-10-07T11:20:09.558Z</time>
      </trkpt>
      <trkpt lat="44.60115" lon="4.98645">
        <ele>276.75</ele>
        <time>2021-10-07T11:20:28.476Z</time>
      </trkpt>
      <trkpt lat="44.60099" lon="4.98621">
        <ele>272.62</ele>
        <time>2021-10-07T11:20:47.783Z</time>
      </trkpt>
      <trkpt lat="44.60083" lon="4.9861">
        <ele>268.7</ele>
        <time>2021-10-07T11:21:06.601Z</time>
      </trkpt>
      <trkpt lat="44.60053" lon="4.98592">
        <ele>261.26</ele>
        <time>2021-10-07T11:21:35.737Z</time>
      </trkpt>
      <trkpt lat="44.60042" lon="4.98574">
        <ele>258.23</ele>
        <time>2021-10-07T11:21:55.334Z</time>
      </trkpt>
      <trkpt lat="44.60026" lon="4.98561">
        <ele>253.86</ele>
        <time>2021-10-07T11:22:15.000Z</time>
      </trkpt>
      <trkpt lat="44.60011" lon="4.98547">
        <ele>249.39</ele>
        <time>2021-10-07T11:22:34.000Z</time>
      </trkpt>
      <trkpt lat="44.59995" lon="4.98535">
        <ele>244.4</ele>
        <time>2021-10-07T11:22:52.620Z</time>
      </trkpt>
      <trkpt lat="44.59978" lon="4.98514">
        <ele>238.23</ele>
        <time>2021-10-07T11:23:11.517Z</time>
      </trkpt>
      <trkpt lat="44.59963" lon="4.98501">
        <ele>233.89</ele>
        <time>2021-10-07T11:23:39.785Z</time>
      </trkpt>
      <trkpt lat="44.59959" lon="4.98492">
        <ele>232.71</ele>
        <time>2021-10-07T11:23:58.000Z</time>
      </trkpt>
      <trkpt lat="44.59945" lon="4.98514">
        <ele>230.36</ele>
        <time>2021-10-07T11:24:17.981Z</time>
      </trkpt>
      <trkpt lat="44.5994" lon="4.98508">
        <ele>229.12</ele>
        <time>2021-10-07T11:24:37.000Z</time>
      </trkpt>
      <trkpt lat="44.59939" lon="4.98491">
        <ele>228.55</ele>
        <time>2021-10-07T11:24:56.000Z</time>
      </trkpt>
      <trkpt lat="44.59946" lon="4.98471">
        <ele>229.01</ele>
        <time>2021-10-07T11:25:25.866Z</time>
      </trkpt>
      <trkpt lat="44.59952" lon="4.98454">
        <ele>229.24</ele>
        <time>2021-10-07T11:25:45.000Z</time>
      </trkpt>
      <trkpt lat="44.5995" lon="4.98439">
        <ele>228.23</ele>
        <time>2021-10-07T11:26:04.000Z</time>
      </trkpt>
      <trkpt lat="44.59944" lon="4.98447">
        <ele>227.69</ele>
        <time>2021-10-07T11:26:28.517Z</time>
      </trkpt>
      <trkpt lat="44.59934" lon="4.98448">
        <ele>226.12</ele>
        <time>2021-10-07T11:26:47.000Z</time>
      </trkpt>
      <trkpt lat="44.59924" lon="4.98434">
        <ele>224.21</ele>
        <time>2021-10-07T11:27:05.463Z</time>
      </trkpt>
      <trkpt lat="44.59888" lon="4.98439">
        <ele>221.63</ele>
        <time>2021-10-07T11:29:13.844Z</time>
      </trkpt>
      <trkpt lat="44.59894" lon="4.98405">
        <ele>221.28</ele>
        <time>2021-10-07T11:29:32.763Z</time>
      </trkpt>
      <trkpt lat="44.59897" lon="4.98397">
        <ele>221.25</ele>
        <time>2021-10-07T11:30:23.999Z</time>
      </trkpt>
      <trkpt lat="44.59898" lon="4.98373">
        <ele>220.81</ele>
        <time>2021-10-07T11:30:53.874Z</time>
      </trkpt>
      <trkpt lat="44.59904" lon="4.98366">
        <ele>220.93</ele>
        <time>2021-10-07T11:31:16.555Z</time>
      </trkpt>
      <trkpt lat="44.59903" lon="4.98333">
        <ele>220.3</ele>
        <time>2021-10-07T11:31:35.100Z</time>
      </trkpt>
      <trkpt lat="44.59908" lon="4.98294">
        <ele>220.27</ele>
        <time>2021-10-07T11:32:03.999Z</time>
      </trkpt>
      <trkpt lat="44.59916" lon="4.98272">
        <ele>220.31</ele>
        <time>2021-10-07T11:32:23.878Z</time>
      </trkpt>
      <trkpt lat="44.59942" lon="4.98273">
        <ele>220.79</ele>
        <time>2021-10-07T11:32:43.999Z</time>
      </trkpt>
      <trkpt lat="44.59969" lon="4.98282">
        <ele>222.02</ele>
        <time>2021-10-07T11:33:03.240Z</time>
      </trkpt>
      <trkpt lat="44.5999" lon="4.98285">
        <ele>223.07</ele>
        <time>2021-10-07T11:33:22.417Z</time>
      </trkpt>
      <trkpt lat="44.60023" lon="4.98287">
        <ele>224.24</ele>
        <time>2021-10-07T11:33:50.165Z</time>
      </trkpt>
      <trkpt lat="44.60046" lon="4.98282">
        <ele>224.23</ele>
        <time>2021-10-07T11:34:08.743Z</time>
      </trkpt>
      <trkpt lat="44.60067" lon="4.9828">
        <ele>224.52</ele>
        <time>2021-10-07T11:34:27.796Z</time>
      </trkpt>
      <trkpt lat="44.60094" lon="4.98277">
        <ele>224.71</ele>
        <time>2021-10-07T11:34:46.859Z</time>
      </trkpt>
      <trkpt lat="44.60116" lon="4.9827">
        <ele>224.06</ele>
        <time>2021-10-07T11:35:04.879Z</time>
      </trkpt>
      <trkpt lat="44.60142" lon="4.98267">
        <ele>223.54</ele>
        <time>2021-10-07T11:35:24.277Z</time>
      </trkpt>
      <trkpt lat="44.60178" lon="4.98265">
        <ele>222.84</ele>
        <time>2021-10-07T11:35:53.181Z</time>
      </trkpt>
      <trkpt lat="44.60205" lon="4.98265">
        <ele>222.28</ele>
        <time>2021-10-07T11:36:12.095Z</time>
      </trkpt>
      <trkpt lat="44.60227" lon="4.98259">
        <ele>221.04</ele>
        <time>2021-10-07T11:36:30.999Z</time>
      </trkpt>
      <trkpt lat="44.60251" lon="4.98255">
        <ele>220.32</ele>
        <time>2021-10-07T11:36:49.694Z</time>
      </trkpt>
      <trkpt lat="44.60272" lon="4.98259">
        <ele>220.27</ele>
        <time>2021-10-07T11:37:08.999Z</time>
      </trkpt>
      <trkpt lat="44.60302" lon="4.98286">
        <ele>221.71</ele>
        <time>2021-10-07T11:37:36.860Z</time>
      </trkpt>
      <trkpt lat="44.60321" lon="4.98297">
        <ele>222.26</ele>
        <time>2021-10-07T11:37:55.099Z</time>
      </trkpt>
      <trkpt lat="44.6034" lon="4.9831">
        <ele>222.84</ele>
        <time>2021-10-07T11:38:13.479Z</time>
      </trkpt>
      <trkpt lat="44.60363" lon="4.98328">
        <ele>223.06</ele>
        <time>2021-10-07T11:38:33.313Z</time>
      </trkpt>
      <trkpt lat="44.60379" lon="4.98347">
        <ele>223.88</ele>
        <time>2021-10-07T11:38:51.962Z</time>
      </trkpt>
      <trkpt lat="44.60398" lon="4.98365">
        <ele>224.17</ele>
        <time>2021-10-07T11:39:10.541Z</time>
      </trkpt>
      <trkpt lat="44.60428" lon="4.98389">
        <ele>224.76</ele>
        <time>2021-10-07T11:39:38.978Z</time>
      </trkpt>
      <trkpt lat="44.60447" lon="4.98409">
        <ele>226.32</ele>
        <time>2021-10-07T11:39:57.641Z</time>
      </trkpt>
      <trkpt lat="44.60468" lon="4.9843">
        <ele>227.95</ele>
        <time>2021-10-07T11:40:17.275Z</time>
      </trkpt>
      <trkpt lat="44.60489" lon="4.98443">
        <ele>228.23</ele>
        <time>2021-10-07T11:40:36.146Z</time>
      </trkpt>
      <trkpt lat="44.60511" lon="4.98453">
        <ele>228.08</ele>
        <time>2021-10-07T11:40:54.719Z</time>
      </trkpt>
      <trkpt lat="44.60544" lon="4.98467">
        <ele>228.39</ele>
        <time>2021-10-07T11:41:23.500Z</time>
      </trkpt>
      <trkpt lat="44.60563" lon="4.98467">
        <ele>228.14</ele>
        <time>2021-10-07T11:41:42.000Z</time>
      </trkpt>
      <trkpt lat="44.60561" lon="4.98471">
        <ele>228.46</ele>
        <time>2021-10-07T11:42:54.355Z</time>
      </trkpt>
      <trkpt lat="44.60583" lon="4.98474">
        <ele>228.56</ele>
        <time>2021-10-07T11:43:12.764Z</time>
      </trkpt>
      <trkpt lat="44.60603" lon="4.98486">
        <ele>229.56</ele>
        <time>2021-10-07T11:43:31.382Z</time>
      </trkpt>
      <trkpt lat="44.60622" lon="4.98502">
        <ele>231.02</ele>
        <time>2021-10-07T11:43:50.540Z</time>
      </trkpt>
      <trkpt lat="44.60647" lon="4.9853">
        <ele>233.39</ele>
        <time>2021-10-07T11:44:18.776Z</time>
      </trkpt>
      <trkpt lat="44.60665" lon="4.98529">
        <ele>233.73</ele>
        <time>2021-10-07T11:44:39.122Z</time>
      </trkpt>
      <trkpt lat="44.60687" lon="4.98513">
        <ele>233.74</ele>
        <time>2021-10-07T11:44:57.880Z</time>
      </trkpt>
      <trkpt lat="44.60709" lon="4.98522">
        <ele>235.99</ele>
        <time>2021-10-07T11:45:17.479Z</time>
      </trkpt>
      <trkpt lat="44.60729" lon="4.98527">
        <ele>237.88</ele>
        <time>2021-10-07T11:45:36.577Z</time>
      </trkpt>
      <trkpt lat="44.60743" lon="4.98527">
        <ele>238.89</ele>
        <time>2021-10-07T11:45:54.944Z</time>
      </trkpt>
      <trkpt lat="44.60746" lon="4.98527">
        <ele>239.11</ele>
        <time>2021-10-07T11:46:25.000Z</time>
      </trkpt>
      <trkpt lat="44.60759" lon="4.98533">
        <ele>240.26</ele>
        <time>2021-10-07T11:46:44.000Z</time>
      </trkpt>
      <trkpt lat="44.60781" lon="4.98543">
        <ele>242.02</ele>
        <time>2021-10-07T11:47:03.000Z</time>
      </trkpt>
      <trkpt lat="44.60808" lon="4.98547">
        <ele>243.06</ele>
        <time>2021-10-07T11:47:21.809Z</time>
      </trkpt>
      <trkpt lat="44.60833" lon="4.98548">
        <ele>243.61</ele>
        <time>2021-10-07T11:47:40.700Z</time>
      </trkpt>
      <trkpt lat="44.60846" lon="4.98546">
        <ele>245.9</ele>
      </trkpt>
      <trkpt lat="44.60857" lon="4.98551">
        <ele>244.07</ele>
        <time>2021-10-07T11:50:44.562Z</time>
      </trkpt>
      <trkpt lat="44.60882" lon="4.98564">
        <ele>245.04</ele>
        <time>2021-10-07T11:51:02.954Z</time>
      </trkpt>
      <trkpt lat="44.60902" lon="4.98576">
        <ele>246.04</ele>
        <time>2021-10-07T11:51:21.243Z</time>
      </trkpt>
      <trkpt lat="44.60933" lon="4.98588">
        <ele>247.81</ele>
        <time>2021-10-07T11:51:49.980Z</time>
      </trkpt>
      <trkpt lat="44.60954" lon="4.98601">
        <ele>249.83</ele>
        <time>2021-10-07T11:52:09.919Z</time>
      </trkpt>
      <trkpt lat="44.60974" lon="4.98613">
        <ele>251.59</ele>
        <time>2021-10-07T11:52:29.165Z</time>
      </trkpt>
      <trkpt lat="44.60993" lon="4.98628">
        <ele>253.3</ele>
        <time>2021-10-07T11:52:48.419Z</time>
      </trkpt>
      <trkpt lat="44.61012" lon="4.98648">
        <ele>255.27</ele>
        <time>2021-10-07T11:53:08.999Z</time>
      </trkpt>
      <trkpt lat="44.61032" lon="4.98679">
        <ele>258.43</ele>
        <time>2021-10-07T11:53:37.504Z</time>
      </trkpt>
      <trkpt lat="44.61046" lon="4.98705">
        <ele>260.95</ele>
        <time>2021-10-07T11:53:57.038Z</time>
      </trkpt>
      <trkpt lat="44.61051" lon="4.98725">
        <ele>262.97</ele>
        <time>2021-10-07T11:54:16.160Z</time>
      </trkpt>
      <trkpt lat="44.61066" lon="4.98738">
        <ele>263.04</ele>
        <time>2021-10-07T11:54:35.999Z</time>
      </trkpt>
      <trkpt lat="44.61074" lon="4.98752">
        <ele>263.88</ele>
        <time>2021-10-07T11:55:02.856Z</time>
      </trkpt>
      <trkpt lat="44.61083" lon="4.98781">
        <ele>266.03</ele>
        <time>2021-10-07T11:55:22.724Z</time>
      </trkpt>
      <trkpt lat="44.611" lon="4.9882">
        <ele>269.15</ele>
        <time>2021-10-07T11:55:51.999Z</time>
      </trkpt>
      <trkpt lat="44.61117" lon="4.98842">
        <ele>271.11</ele>
        <time>2021-10-07T11:56:10.659Z</time>
      </trkpt>
      <trkpt lat="44.61137" lon="4.98861">
        <ele>272.61</ele>
        <time>2021-10-07T11:56:30.005Z</time>
      </trkpt>
      <trkpt lat="44.61153" lon="4.98879">
        <ele>273.95</ele>
        <time>2021-10-07T11:56:48.463Z</time>
      </trkpt>
      <trkpt lat="44.61171" lon="4.989">
        <ele>274.93</ele>
        <time>2021-10-07T11:57:06.919Z</time>
      </trkpt>
      <trkpt lat="44.61195" lon="4.98918">
        <ele>274.3</ele>
        <time>2021-10-07T11:57:36.999Z</time>
      </trkpt>
      <trkpt lat="44.61217" lon="4.9893">
        <ele>273.22</ele>
        <time>2021-10-07T11:57:56.483Z</time>
      </trkpt>
      <trkpt lat="44.61232" lon="4.98949">
        <ele>273.69</ele>
        <time>2021-10-07T11:58:15.185Z</time>
      </trkpt>
      <trkpt lat="44.61231" lon="4.98978">
        <ele>277.04</ele>
        <time>2021-10-07T11:58:34.463Z</time>
      </trkpt>
      <trkpt lat="44.6122" lon="4.98996">
        <ele>280.57</ele>
        <time>2021-10-07T11:58:53.461Z</time>
      </trkpt>
      <trkpt lat="44.61217" lon="4.99016">
        <ele>284.18</ele>
        <time>2021-10-07T11:59:26.000Z</time>
      </trkpt>
      <trkpt lat="44.61203" lon="4.99066">
        <ele>295.38</ele>
        <time>2021-10-07T11:59:55.122Z</time>
      </trkpt>
      <trkpt lat="44.61207" lon="4.99089">
        <ele>299.47</ele>
        <time>2021-10-07T12:00:14.899Z</time>
      </trkpt>
      <trkpt lat="44.61219" lon="4.99118">
        <ele>304.12</ele>
        <time>2021-10-07T12:00:34.878Z</time>
      </trkpt>
      <trkpt lat="44.61232" lon="4.9914">
        <ele>307.17</ele>
        <time>2021-10-07T12:00:53.518Z</time>
      </trkpt>
      <trkpt lat="44.61247" lon="4.99142">
        <ele>306.37</ele>
        <time>2021-10-07T12:01:12.534Z</time>
      </trkpt>
      <trkpt lat="44.61265" lon="4.99118">
        <ele>300.37</ele>
        <time>2021-10-07T12:01:31.263Z</time>
      </trkpt>
      <trkpt lat="44.61293" lon="4.99119">
        <ele>297.72</ele>
        <time>2021-10-07T12:01:59.379Z</time>
      </trkpt>
      <trkpt lat="44.61317" lon="4.99125">
        <ele>297.81</ele>
        <time>2021-10-07T12:02:18.417Z</time>
      </trkpt>
      <trkpt lat="44.61334" lon="4.99135">
        <ele>300.5</ele>
        <time>2021-10-07T12:02:36.757Z</time>
      </trkpt>
      <trkpt lat="44.61355" lon="4.9913">
        <ele>301.68</ele>
        <time>2021-10-07T12:02:55.725Z</time>
      </trkpt>
      <trkpt lat="44.61374" lon="4.99114">
        <ele>301.57</ele>
        <time>2021-10-07T12:03:14.638Z</time>
      </trkpt>
      <trkpt lat="44.61399" lon="4.99109">
        <ele>305.66</ele>
        <time>2021-10-07T12:03:43.378Z</time>
      </trkpt>
      <trkpt lat="44.61409" lon="4.99116">
        <ele>308.52</ele>
        <time>2021-10-07T12:04:02.915Z</time>
      </trkpt>
      <trkpt lat="44.61424" lon="4.99129">
        <ele>312.53</ele>
        <time>2021-10-07T12:04:21.762Z</time>
      </trkpt>
      <trkpt lat="44.61444" lon="4.99146">
        <ele>316.5</ele>
        <time>2021-10-07T12:04:40.322Z</time>
      </trkpt>
      <trkpt lat="44.61456" lon="4.99154">
        <ele>317.88</ele>
        <time>2021-10-07T12:04:58.878Z</time>
      </trkpt>
      <trkpt lat="44.61476" lon="4.99162">
        <ele>319.09</ele>
        <time>2021-10-07T12:05:19.000Z</time>
      </trkpt>
      <trkpt lat="44.61507" lon="4.99175">
        <ele>321.7</ele>
        <time>2021-10-07T12:05:48.000Z</time>
      </trkpt>
      <trkpt lat="44.61527" lon="4.99176">
        <ele>321.43</ele>
        <time>2021-10-07T12:06:07.001Z</time>
      </trkpt>
      <trkpt lat="44.61547" lon="4.99188">
        <ele>322.96</ele>
        <time>2021-10-07T12:06:26.580Z</time>
      </trkpt>
      <trkpt lat="44.61561" lon="4.99209">
        <ele>325.97</ele>
        <time>2021-10-07T12:06:46.000Z</time>
      </trkpt>
      <trkpt lat="44.61576" lon="4.99234">
        <ele>329.57</ele>
        <time>2021-10-07T12:07:04.776Z</time>
      </trkpt>
      <trkpt lat="44.61592" lon="4.99268">
        <ele>334.7</ele>
        <time>2021-10-07T12:07:33.042Z</time>
      </trkpt>
      <trkpt lat="44.61604" lon="4.99286">
        <ele>337.1</ele>
        <time>2021-10-07T12:07:55.000Z</time>
      </trkpt>
      <trkpt lat="44.6161" lon="4.99278">
        <ele>337.16</ele>
        <time>2021-10-07T12:08:15.000Z</time>
      </trkpt>
      <trkpt lat="44.6162" lon="4.99268">
        <ele>338.44</ele>
        <time>2021-10-07T12:08:33.999Z</time>
      </trkpt>
      <trkpt lat="44.61631" lon="4.99255">
        <ele>341.3</ele>
        <time>2021-10-07T12:08:54.999Z</time>
      </trkpt>
      <trkpt lat="44.61642" lon="4.99248">
        <ele>344.53</ele>
        <time>2021-10-07T12:09:13.999Z</time>
      </trkpt>
      <trkpt lat="44.61634" lon="4.99216">
        <ele>344.41</ele>
        <time>2021-10-07T12:12:58.485Z</time>
      </trkpt>
      <trkpt lat="44.61637" lon="4.99189">
        <ele>346.84</ele>
        <time>2021-10-07T12:13:17.923Z</time>
      </trkpt>
      <trkpt lat="44.61639" lon="4.99163">
        <ele>348.54</ele>
        <time>2021-10-07T12:13:37.999Z</time>
      </trkpt>
      <trkpt lat="44.61644" lon="4.99137">
        <ele>352.23</ele>
        <time>2021-10-07T12:13:56.459Z</time>
      </trkpt>
      <trkpt lat="44.61644" lon="4.99109">
        <ele>352.64</ele>
        <time>2021-10-07T12:14:14.696Z</time>
      </trkpt>
      <trkpt lat="44.61637" lon="4.99077">
        <ele>348.32</ele>
        <time>2021-10-07T12:14:43.052Z</time>
      </trkpt>
      <trkpt lat="44.6164" lon="4.99049">
        <ele>348.6</ele>
        <time>2021-10-07T12:15:01.963Z</time>
      </trkpt>
      <trkpt lat="44.61638" lon="4.99026">
        <ele>346.3</ele>
        <time>2021-10-07T12:15:20.558Z</time>
      </trkpt>
      <trkpt lat="44.61636" lon="4.99004">
        <ele>343.57</ele>
        <time>2021-10-07T12:15:38.738Z</time>
      </trkpt>
      <trkpt lat="44.61636" lon="4.98985">
        <ele>341.66</ele>
        <time>2021-10-07T12:15:59.335Z</time>
      </trkpt>
      <trkpt lat="44.61629" lon="4.98965">
        <ele>335.72</ele>
        <time>2021-10-07T12:16:18.184Z</time>
      </trkpt>
      <trkpt lat="44.61622" lon="4.98922">
        <ele>329.25</ele>
        <time>2021-10-07T12:16:45.999Z</time>
      </trkpt>
      <trkpt lat="44.61621" lon="4.9889">
        <ele>326.96</ele>
        <time>2021-10-07T12:17:05.999Z</time>
      </trkpt>
      <trkpt lat="44.61617" lon="4.98853">
        <ele>323.95</ele>
        <time>2021-10-07T12:17:25.875Z</time>
      </trkpt>
      <trkpt lat="44.61616" lon="4.98834">
        <ele>323.22</ele>
        <time>2021-10-07T12:17:43.982Z</time>
      </trkpt>
      <trkpt lat="44.61607" lon="4.98796">
        <ele>320.24</ele>
        <time>2021-10-07T12:18:02.701Z</time>
      </trkpt>
      <trkpt lat="44.61599" lon="4.98764">
        <ele>318.03</ele>
        <time>2021-10-07T12:18:21.259Z</time>
      </trkpt>
      <trkpt lat="44.61586" lon="4.98715">
        <ele>315.1</ele>
        <time>2021-10-07T12:18:48.676Z</time>
      </trkpt>
      <trkpt lat="44.6158" lon="4.98684">
        <ele>313.94</ele>
        <time>2021-10-07T12:19:07.005Z</time>
      </trkpt>
      <trkpt lat="44.61574" lon="4.98653">
        <ele>311.59</ele>
        <time>2021-10-07T12:19:25.322Z</time>
      </trkpt>
      <trkpt lat="44.6157" lon="4.98623">
        <ele>308.63</ele>
        <time>2021-10-07T12:19:44.541Z</time>
      </trkpt>
      <trkpt lat="44.6157" lon="4.98593">
        <ele>306.3</ele>
        <time>2021-10-07T12:20:04.039Z</time>
      </trkpt>
      <trkpt lat="44.61578" lon="4.98593">
        <ele>308.5</ele>
        <time>2021-10-07T12:20:33.184Z</time>
      </trkpt>
      <trkpt lat="44.61588" lon="4.98613">
        <ele>312.36</ele>
        <time>2021-10-07T12:20:52.842Z</time>
      </trkpt>
      <trkpt lat="44.61595" lon="4.98618">
        <ele>314.26</ele>
        <time>2021-10-07T12:21:14.042Z</time>
      </trkpt>
      <trkpt lat="44.61602" lon="4.98627">
        <ele>316.42</ele>
        <time>2021-10-07T12:21:33.358Z</time>
      </trkpt>
      <trkpt lat="44.6161" lon="4.98643">
        <ele>319.58</ele>
        <time>2021-10-07T12:22:06.734Z</time>
      </trkpt>
      <trkpt lat="44.61621" lon="4.98648">
        <ele>321.67</ele>
        <time>2021-10-07T12:22:25.683Z</time>
      </trkpt>
      <trkpt lat="44.61638" lon="4.98634">
        <ele>320.9</ele>
        <time>2021-10-07T12:22:54.000Z</time>
      </trkpt>
      <trkpt lat="44.61651" lon="4.98626">
        <ele>319.3</ele>
        <time>2021-10-07T12:23:18.059Z</time>
      </trkpt>
      <trkpt lat="44.61672" lon="4.9862">
        <ele>316.65</ele>
        <time>2021-10-07T12:23:55.580Z</time>
      </trkpt>
      <trkpt lat="44.6169" lon="4.98626">
        <ele>315.14</ele>
        <time>2021-10-07T12:24:15.099Z</time>
      </trkpt>
      <trkpt lat="44.61713" lon="4.98651">
        <ele>313.43</ele>
        <time>2021-10-07T12:24:33.880Z</time>
      </trkpt>
      <trkpt lat="44.61735" lon="4.98693">
        <ele>309.27</ele>
        <time>2021-10-07T12:25:01.546Z</time>
      </trkpt>
      <trkpt lat="44.61748" lon="4.98722">
        <ele>306.59</ele>
        <time>2021-10-07T12:25:19.867Z</time>
      </trkpt>
      <trkpt lat="44.61754" lon="4.98754">
        <ele>307.19</ele>
        <time>2021-10-07T12:25:38.681Z</time>
      </trkpt>
      <trkpt lat="44.6176" lon="4.98776">
        <ele>306.53</ele>
        <time>2021-10-07T12:25:58.000Z</time>
      </trkpt>
      <trkpt lat="44.61777" lon="4.988">
        <ele>302.4</ele>
        <time>2021-10-07T12:26:16.877Z</time>
      </trkpt>
      <trkpt lat="44.6179" lon="4.98825">
        <ele>299.39</ele>
        <time>2021-10-07T12:26:35.343Z</time>
      </trkpt>
      <trkpt lat="44.61806" lon="4.98862">
        <ele>296.63</ele>
        <time>2021-10-07T12:27:02.762Z</time>
      </trkpt>
      <trkpt lat="44.61823" lon="4.98885">
        <ele>292.24</ele>
        <time>2021-10-07T12:27:22.482Z</time>
      </trkpt>
      <trkpt lat="44.61827" lon="4.98901">
        <ele>292.5</ele>
        <time>2021-10-07T12:27:41.160Z</time>
      </trkpt>
      <trkpt lat="44.61833" lon="4.98924">
        <ele>292.63</ele>
        <time>2021-10-07T12:28:00.143Z</time>
      </trkpt>
      <trkpt lat="44.61846" lon="4.98958">
        <ele>292.69</ele>
        <time>2021-10-07T12:28:19.483Z</time>
      </trkpt>
      <trkpt lat="44.61863" lon="4.98966">
        <ele>289.03</ele>
        <time>2021-10-07T12:28:38.320Z</time>
      </trkpt>
      <trkpt lat="44.61866" lon="4.98919">
        <ele>283.06</ele>
        <time>2021-10-07T12:29:05.876Z</time>
      </trkpt>
      <trkpt lat="44.61886" lon="4.98898">
        <ele>276.22</ele>
        <time>2021-10-07T12:29:24.630Z</time>
      </trkpt>
      <trkpt lat="44.619" lon="4.98876">
        <ele>271.24</ele>
        <time>2021-10-07T12:29:44.343Z</time>
      </trkpt>
      <trkpt lat="44.61919" lon="4.98849">
        <ele>265.96</ele>
        <time>2021-10-07T12:30:02.980Z</time>
      </trkpt>
      <trkpt lat="44.61941" lon="4.98851">
        <ele>265.36</ele>
        <time>2021-10-07T12:30:21.095Z</time>
      </trkpt>
      <trkpt lat="44.61964" lon="4.98862">
        <ele>266.93</ele>
        <time>2021-10-07T12:30:52.870Z</time>
      </trkpt>
      <trkpt lat="44.61987" lon="4.98855">
        <ele>267.97</ele>
        <time>2021-10-07T12:31:11.999Z</time>
      </trkpt>
      <trkpt lat="44.61985" lon="4.9882">
        <ele>266.76</ele>
        <time>2021-10-07T12:31:30.522Z</time>
      </trkpt>
      <trkpt lat="44.61988" lon="4.98782">
        <ele>266.1</ele>
        <time>2021-10-07T12:31:49.879Z</time>
      </trkpt>
      <trkpt lat="44.61998" lon="4.98753">
        <ele>266.87</ele>
        <time>2021-10-07T12:32:08.519Z</time>
      </trkpt>
      <trkpt lat="44.62017" lon="4.98732">
        <ele>268.04</ele>
        <time>2021-10-07T12:32:26.675Z</time>
      </trkpt>
      <trkpt lat="44.62048" lon="4.98716">
        <ele>268.93</ele>
        <time>2021-10-07T12:32:55.202Z</time>
      </trkpt>
      <trkpt lat="44.62068" lon="4.98704">
        <ele>269.31</ele>
        <time>2021-10-07T12:33:13.881Z</time>
      </trkpt>
      <trkpt lat="44.62085" lon="4.98671">
        <ele>269.98</ele>
        <time>2021-10-07T12:33:34.122Z</time>
      </trkpt>
      <trkpt lat="44.62095" lon="4.98643">
        <ele>270.92</ele>
        <time>2021-10-07T12:33:53.055Z</time>
      </trkpt>
      <trkpt lat="44.62095" lon="4.98613">
        <ele>271.88</ele>
        <time>2021-10-07T12:34:12.999Z</time>
      </trkpt>
      <trkpt lat="44.62099" lon="4.98565">
        <ele>273.75</ele>
        <time>2021-10-07T12:34:41.980Z</time>
      </trkpt>
      <trkpt lat="44.62103" lon="4.98534">
        <ele>275.23</ele>
        <time>2021-10-07T12:35:00.539Z</time>
      </trkpt>
      <trkpt lat="44.62111" lon="4.98502">
        <ele>276.72</ele>
        <time>2021-10-07T12:35:20.477Z</time>
      </trkpt>
      <trkpt lat="44.62124" lon="4.98479">
        <ele>277.76</ele>
        <time>2021-10-07T12:35:38.625Z</time>
      </trkpt>
      <trkpt lat="44.62135" lon="4.98452">
        <ele>279.1</ele>
        <time>2021-10-07T12:35:57.001Z</time>
      </trkpt>
      <trkpt lat="44.62145" lon="4.98425">
        <ele>280.27</ele>
        <time>2021-10-07T12:36:15.869Z</time>
      </trkpt>
      <trkpt lat="44.62158" lon="4.98391">
        <ele>281.16</ele>
        <time>2021-10-07T12:36:43.999Z</time>
      </trkpt>
      <trkpt lat="44.62162" lon="4.98382">
        <ele>281.34</ele>
        <time>2021-10-07T12:37:03.856Z</time>
      </trkpt>
      <trkpt lat="44.6217" lon="4.98386">
        <ele>281.64</ele>
        <time>2021-10-07T12:37:23.000Z</time>
      </trkpt>
      <trkpt lat="44.62183" lon="4.98397">
        <ele>282.13</ele>
        <time>2021-10-07T12:37:41.603Z</time>
      </trkpt>
      <trkpt lat="44.62188" lon="4.98372">
        <ele>283.02</ele>
        <time>2021-10-07T12:37:59.980Z</time>
      </trkpt>
      <trkpt lat="44.62191" lon="4.98338">
        <ele>283.36</ele>
        <time>2021-10-07T12:38:28.177Z</time>
      </trkpt>
      <trkpt lat="44.62197" lon="4.98316">
        <ele>283.22</ele>
        <time>2021-10-07T12:38:48.000Z</time>
      </trkpt>
      <trkpt lat="44.62209" lon="4.98298">
        <ele>283.49</ele>
        <time>2021-10-07T12:39:08.722Z</time>
      </trkpt>
      <trkpt lat="44.62219" lon="4.98289">
        <ele>283.99</ele>
        <time>2021-10-07T12:39:28.000Z</time>
      </trkpt>
      <trkpt lat="44.62237" lon="4.98275">
        <ele>284.96</ele>
        <time>2021-10-07T12:39:47.000Z</time>
      </trkpt>
      <trkpt lat="44.62254" lon="4.98271">
        <ele>286.95</ele>
        <time>2021-10-07T12:40:06.115Z</time>
      </trkpt>
      <trkpt lat="44.62283" lon="4.98256">
        <ele>290.02</ele>
        <time>2021-10-07T12:40:33.765Z</time>
      </trkpt>
      <trkpt lat="44.62301" lon="4.98253">
        <ele>292.98</ele>
        <time>2021-10-07T12:40:53.543Z</time>
      </trkpt>
      <trkpt lat="44.62321" lon="4.98254">
        <ele>296.9</ele>
        <time>2021-10-07T12:41:12.001Z</time>
      </trkpt>
      <trkpt lat="44.62339" lon="4.98246">
        <ele>299.71</ele>
        <time>2021-10-07T12:41:31.000Z</time>
      </trkpt>
      <trkpt lat="44.62359" lon="4.98248">
        <ele>304.45</ele>
        <time>2021-10-07T12:41:52.000Z</time>
      </trkpt>
      <trkpt lat="44.62373" lon="4.98248">
        <ele>307.84</ele>
        <time>2021-10-07T12:42:16.939Z</time>
      </trkpt>
      <trkpt lat="44.62404" lon="4.98245">
        <ele>314.41</ele>
        <time>2021-10-07T12:42:58.364Z</time>
      </trkpt>
      <trkpt lat="44.62433" lon="4.9823">
        <ele>316.93</ele>
        <time>2021-10-07T12:43:16.622Z</time>
      </trkpt>
      <trkpt lat="44.62443" lon="4.98223">
        <ele>317.03</ele>
        <time>2021-10-07T12:43:39.438Z</time>
      </trkpt>
      <trkpt lat="44.62469" lon="4.98216">
        <ele>319.16</ele>
        <time>2021-10-07T12:43:57.676Z</time>
      </trkpt>
      <trkpt lat="44.62493" lon="4.98217">
        <ele>321.86</ele>
        <time>2021-10-07T12:44:17.445Z</time>
      </trkpt>
      <trkpt lat="44.62547" lon="4.98216">
        <ele>325.59</ele>
        <time>2021-10-07T12:45:01.201Z</time>
      </trkpt>
      <trkpt lat="44.62567" lon="4.98223">
        <ele>327.72</ele>
        <time>2021-10-07T12:45:41.577Z</time>
      </trkpt>
      <trkpt lat="44.62606" lon="4.98225">
        <ele>330.98</ele>
        <time>2021-10-07T12:46:01.745Z</time>
      </trkpt>
      <trkpt lat="44.62624" lon="4.9823">
        <ele>333.18</ele>
        <time>2021-10-07T12:46:21.000Z</time>
      </trkpt>
      <trkpt lat="44.6264" lon="4.98229">
        <ele>334.42</ele>
        <time>2021-10-07T12:46:40.023Z</time>
      </trkpt>
      <trkpt lat="44.62654" lon="4.98223">
        <ele>334.56</ele>
        <time>2021-10-07T12:47:00.878Z</time>
      </trkpt>
      <trkpt lat="44.6269" lon="4.98206">
        <ele>335.38</ele>
        <time>2021-10-07T12:47:30.084Z</time>
      </trkpt>
      <trkpt lat="44.6272" lon="4.98198">
        <ele>338.53</ele>
        <time>2021-10-07T12:47:49.982Z</time>
      </trkpt>
      <trkpt lat="44.62737" lon="4.98184">
        <ele>340.09</ele>
        <time>2021-10-07T12:48:10.739Z</time>
      </trkpt>
      <trkpt lat="44.62754" lon="4.98177">
        <ele>341.55</ele>
        <time>2021-10-07T12:48:29.195Z</time>
      </trkpt>
      <trkpt lat="44.62773" lon="4.98167">
        <ele>342.05</ele>
        <time>2021-10-07T12:48:47.809Z</time>
      </trkpt>
      <trkpt lat="44.62802" lon="4.98154">
        <ele>340.86</ele>
        <time>2021-10-07T12:49:17.461Z</time>
      </trkpt>
      <trkpt lat="44.62834" lon="4.98153">
        <ele>341.49</ele>
        <time>2021-10-07T12:50:09.299Z</time>
      </trkpt>
      <trkpt lat="44.62858" lon="4.98147">
        <ele>340.87</ele>
        <time>2021-10-07T12:50:28.999Z</time>
      </trkpt>
      <trkpt lat="44.62905" lon="4.98134">
        <ele>339.88</ele>
        <time>2021-10-07T12:50:48.436Z</time>
      </trkpt>
      <trkpt lat="44.62924" lon="4.9812">
        <ele>338.82</ele>
        <time>2021-10-07T12:51:06.675Z</time>
      </trkpt>
      <trkpt lat="44.6294" lon="4.98101">
        <ele>337.42</ele>
        <time>2021-10-07T12:51:25.383Z</time>
      </trkpt>
      <trkpt lat="44.62954" lon="4.98088">
        <ele>338.18</ele>
        <time>2021-10-07T12:52:46.999Z</time>
      </trkpt>
      <trkpt lat="44.62951" lon="4.98084">
        <ele>336.99</ele>
        <time>2021-10-07T12:53:24.999Z</time>
      </trkpt>
      <trkpt lat="44.62967" lon="4.98083">
        <ele>340.1</ele>
        <time>2021-10-07T12:54:07.036Z</time>
      </trkpt>
      <trkpt lat="44.62993" lon="4.98068">
        <ele>342.75</ele>
        <time>2021-10-07T12:54:26.999Z</time>
      </trkpt>
      <trkpt lat="44.63012" lon="4.98051">
        <ele>341.83</ele>
        <time>2021-10-07T12:54:46.081Z</time>
      </trkpt>
      <trkpt lat="44.63037" lon="4.98051">
        <ele>344.98</ele>
        <time>2021-10-07T12:55:15.016Z</time>
      </trkpt>
      <trkpt lat="44.63058" lon="4.98051">
        <ele>346.97</ele>
        <time>2021-10-07T12:55:33.996Z</time>
      </trkpt>
      <trkpt lat="44.63073" lon="4.98059">
        <ele>349.45</ele>
        <time>2021-10-07T12:56:14.538Z</time>
      </trkpt>
      <trkpt lat="44.6312" lon="4.98079">
        <ele>354.7</ele>
        <time>2021-10-07T12:56:34.195Z</time>
      </trkpt>
      <trkpt lat="44.63162" lon="4.98103">
        <ele>357.09</ele>
        <time>2021-10-07T12:58:20.224Z</time>
      </trkpt>
      <trkpt lat="44.6318" lon="4.98121">
        <ele>356.38</ele>
        <time>2021-10-07T12:58:38.668Z</time>
      </trkpt>
      <trkpt lat="44.63226" lon="4.98126">
        <ele>354.41</ele>
        <time>2021-10-07T12:59:06.558Z</time>
      </trkpt>
      <trkpt lat="44.63234" lon="4.98131">
        <ele>354.29</ele>
        <time>2021-10-07T12:59:31.616Z</time>
      </trkpt>
      <trkpt lat="44.63279" lon="4.98145">
        <ele>354.42</ele>
        <time>2021-10-07T12:59:50.784Z</time>
      </trkpt>
      <trkpt lat="44.63307" lon="4.98153">
        <ele>354.84</ele>
        <time>2021-10-07T13:00:10.000Z</time>
      </trkpt>
      <trkpt lat="44.63334" lon="4.98162">
        <ele>355.74</ele>
        <time>2021-10-07T13:00:28.522Z</time>
      </trkpt>
      <trkpt lat="44.63357" lon="4.98175">
        <ele>357.43</ele>
        <time>2021-10-07T13:00:56.844Z</time>
      </trkpt>
      <trkpt lat="44.63385" lon="4.98174">
        <ele>359.08</ele>
        <time>2021-10-07T13:01:33.944Z</time>
      </trkpt>
      <trkpt lat="44.63437" lon="4.98173">
        <ele>361.35</ele>
        <time>2021-10-07T13:01:53.502Z</time>
      </trkpt>
      <trkpt lat="44.63474" lon="4.98186">
        <ele>363.64</ele>
        <time>2021-10-07T13:02:12.039Z</time>
      </trkpt>
      <trkpt lat="44.63496" lon="4.98197">
        <ele>364.81</ele>
        <time>2021-10-07T13:02:30.616Z</time>
      </trkpt>
      <trkpt lat="44.63525" lon="4.98213">
        <ele>365.66</ele>
        <time>2021-10-07T13:02:49.665Z</time>
      </trkpt>
      <trkpt lat="44.63552" lon="4.98238">
        <ele>367.83</ele>
        <time>2021-10-07T13:03:17.781Z</time>
      </trkpt>
      <trkpt lat="44.63588" lon="4.98252">
        <ele>369.23</ele>
        <time>2021-10-07T13:03:36.019Z</time>
      </trkpt>
      <trkpt lat="44.636" lon="4.98262">
        <ele>370.48</ele>
        <time>2021-10-07T13:04:09.484Z</time>
      </trkpt>
      <trkpt lat="44.63619" lon="4.98274">
        <ele>371.7</ele>
        <time>2021-10-07T13:04:28.082Z</time>
      </trkpt>
      <trkpt lat="44.63637" lon="4.98282">
        <ele>372.47</ele>
        <time>2021-10-07T13:04:59.937Z</time>
      </trkpt>
      <trkpt lat="44.63671" lon="4.98289">
        <ele>372.99</ele>
        <time>2021-10-07T13:05:18.686Z</time>
      </trkpt>
      <trkpt lat="44.63714" lon="4.98304">
        <ele>373.64</ele>
        <time>2021-10-07T13:05:48.401Z</time>
      </trkpt>
      <trkpt lat="44.63725" lon="4.98302">
        <ele>373.29</ele>
        <time>2021-10-07T13:06:07.800Z</time>
      </trkpt>
      <trkpt lat="44.6373" lon="4.98288">
        <ele>371.73</ele>
        <time>2021-10-07T13:06:30.206Z</time>
      </trkpt>
      <trkpt lat="44.63741" lon="4.98293">
        <ele>372.22</ele>
        <time>2021-10-07T13:06:49.999Z</time>
      </trkpt>
      <trkpt lat="44.63752" lon="4.98272">
        <ele>369.4</ele>
        <time>2021-10-07T13:07:10.100Z</time>
      </trkpt>
      <trkpt lat="44.63794" lon="4.98263">
        <ele>366.4</ele>
      </trkpt>
      <trkpt lat="44.63841" lon="4.98269">
        <ele>367.7</ele>
      </trkpt>
      <trkpt lat="44.639" lon="4.98292">
        <ele>374.2</ele>
      </trkpt>
      <trkpt lat="44.63942" lon="4.98293">
        <ele>378.5</ele>
      </trkpt>
      <trkpt lat="44.63962" lon="4.98302">
        <ele>383.9</ele>
      </trkpt>
      <trkpt lat="44.63988" lon="4.98327">
        <ele>394.3</ele>
      </trkpt>
      <trkpt lat="44.64027" lon="4.98328">
        <ele>398.9</ele>
      </trkpt>
      <trkpt lat="44.64076" lon="4.98331">
        <ele>403.8</ele>
      </trkpt>
      <trkpt lat="44.64139" lon="4.98343">
        <ele>407.4</ele>
      </trkpt>
      <trkpt lat="44.64175" lon="4.98348">
        <ele>408.2</ele>
      </trkpt>
      <trkpt lat="44.64179" lon="4.98371">
        <ele>407.4</ele>
      </trkpt>
      <trkpt lat="44.64173" lon="4.98466">
        <ele>399.8</ele>
      </trkpt>
      <trkpt lat="44.64206" lon="4.98515">
        <ele>394.5</ele>
      </trkpt>
      <trkpt lat="44.64164" lon="4.98513">
        <ele>393.8</ele>
      </trkpt>
      <trkpt lat="44.64131" lon="4.98525">
        <ele>392.7</ele>
      </trkpt>
      <trkpt lat="44.64085" lon="4.98573">
        <ele>391.2</ele>
      </trkpt>
      <trkpt lat="44.64066" lon="4.98588">
        <ele>390</ele>
      </trkpt>
      <trkpt lat="44.64036" lon="4.98592">
        <ele>388.4</ele>
      </trkpt>
      <trkpt lat="44.6401" lon="4.98569">
        <ele>386.5</ele>
      </trkpt>
      <trkpt lat="44.63995" lon="4.98533">
        <ele>384.9</ele>
      </trkpt>
      <trkpt lat="44.63982" lon="4.98535">
        <ele>383.6</ele>
      </trkpt>
      <trkpt lat="44.63985" lon="4.98569">
        <ele>384.5</ele>
      </trkpt>
    </trkseg>
  </trk>
</gpx>